BRO37P / G-TGPG 7700 Squawk Report (21st of July, 2018)

Time Lat Lon Altitude Heading Speed Vertical Rate
2018-07-21 10:29:25 GMT 53.487465 -0.977077 0 19 3 0
2018-07-21 10:29:20 GMT 53.487453 -0.977097 0 19 3 0
2018-07-21 10:29:08 GMT 53.487289 -0.977258 0 19 3 0
2018-07-21 10:28:58 GMT 53.487114 -0.977440 0 19 4 0
2018-07-21 10:28:50 GMT 53.487114 -0.977601 0 19 4 0
2018-07-21 10:28:28 GMT 53.487110 -0.978293 0 19 7 0
2018-07-21 10:28:17 GMT 53.486763 -0.978470 0 19 8 0
2018-07-21 10:28:07 GMT 53.486427 -0.978127 0 19 10 0
2018-07-21 10:27:56 GMT 53.486080 -0.977430 0 19 11 0
2018-07-21 10:27:48 GMT 53.485909 -0.977097 0 19 13 0
2018-07-21 10:27:38 GMT 53.485394 -0.976233 0 19 13 0
2018-07-21 10:27:28 GMT 53.485054 -0.975542 0 19 12 0
2018-07-21 10:27:18 GMT 53.484703 -0.974855 0 19 11 0
2018-07-21 10:27:07 GMT 53.484535 -0.974173 0 19 11 0
2018-07-21 10:26:57 GMT 53.484192 -0.973663 0 19 13 0
2018-07-21 10:26:47 GMT 53.483505 -0.973997 0 19 19 0
2018-07-21 10:26:37 GMT 53.482479 -0.974512 0 19 22 0
2018-07-21 10:26:27 GMT 53.481617 -0.975037 0 19 24 0
2018-07-21 10:26:16 GMT 53.480583 -0.975542 0 16 20 0
2018-07-21 10:26:05 GMT 53.479729 -0.976057 0 16 19 0
2018-07-21 10:25:55 GMT 53.478874 -0.976571 0 16 17 0
2018-07-21 10:25:45 GMT 53.478188 -0.976915 0 16 23 0
2018-07-21 10:25:35 GMT 53.476990 -0.977601 0 16 24 0
2018-07-21 10:25:24 GMT 53.475952 -0.978127 0 16 22 0
2018-07-21 10:25:15 GMT 53.475090 -0.978631 0 196 20 0
2018-07-21 10:25:04 GMT 53.474236 -0.979156 0 196 17 0
2018-07-21 10:24:54 GMT 53.473557 -0.979156 0 196 14 0
2018-07-21 10:24:42 GMT 53.472862 -0.978646 0 196 13 0
2018-07-21 10:24:33 GMT 53.472519 -0.978117 0 196 12 0
2018-07-21 10:24:23 GMT 53.472519 -0.977273 0 196 12 0
2018-07-21 10:24:12 GMT 53.473206 -0.976753 0 196 24 0
2018-07-21 10:24:02 GMT 53.474751 -0.975900 0 196 54 0
2018-07-21 10:23:52 GMT 53.478184 -0.974173 0 196 96 0
2018-07-21 10:23:41 GMT 53.483494 -0.971482 0 198 126 -128
2018-07-21 10:23:31 GMT 53.488998 -0.968523 100 198 123 -768
2018-07-21 10:23:21 GMT 53.494480 -0.965424 225 198 123 -896
2018-07-21 10:23:11 GMT 53.500347 -0.962515 350 197 129 -640
2018-07-21 10:23:00 GMT 53.506351 -0.959446 450 198 130 -576
2018-07-21 10:22:50 GMT 53.512356 -0.956214 550 198 130 -704
2018-07-21 10:22:40 GMT 53.518173 -0.953064 675 198 136 -704
2018-07-21 10:22:29 GMT 53.524521 -0.949847 800 198 139 -768
2018-07-21 10:22:19 GMT 53.530884 -0.946551 925 198 147 -832
2018-07-21 10:22:09 GMT 53.538071 -0.942627 1,075 198 152 -640
2018-07-21 10:21:59 GMT 53.544937 -0.939017 2,700 197 159 -896
2018-07-21 10:21:49 GMT 53.551804 -0.935093 1,350 197 159 -1024
2018-07-21 10:21:39 GMT 53.559219 -0.931327 1,525 198 163 -960
2018-07-21 10:21:28 GMT 53.566910 -0.927325 1,675 198 174 -768
2018-07-21 10:21:18 GMT 53.574642 -0.923255 1,900 197 199 -1280
2018-07-21 10:21:08 GMT 53.583252 -0.918379 2,025 200 184 -960
2018-07-21 10:20:57 GMT 53.591629 -0.913435 2,175 200 185 -768
2018-07-21 10:20:47 GMT 53.599548 -0.908472 2,300 201 190 -896
2018-07-21 10:20:37 GMT 53.608299 -0.903141 2,450 201 196 -1088
2018-07-21 10:20:27 GMT 53.617035 -0.897975 2,650 197 199 -1280
2018-07-21 10:20:19 GMT 53.624779 -0.894739 2,825 193 200 -1152
2018-07-21 10:20:16 GMT 53.627014 -0.893851 2,875 191 201 -1152
2018-07-21 10:20:09 GMT 53.632832 -0.892478 3,000 185 202 -1344
2018-07-21 10:20:05 GMT 53.636444 -0.892168 3,100 182 204 -1408
2018-07-21 10:19:59 GMT 53.642609 -0.892801 3,225 170 205 -1216
2018-07-21 10:19:55 GMT 53.646561 -0.894366 3,325 161 208 -1344
2018-07-21 10:19:48 GMT 53.652058 -0.898132 3,450 155 211 -1344
2018-07-21 10:19:44 GMT 53.655853 -0.901428 3,550 148 213 -1280
2018-07-21 10:19:39 GMT 53.660156 -0.907235 3,650 134 219 -1024
2018-07-21 10:19:34 GMT 53.663040 -0.913121 3,725 125 223 -1088
2018-07-21 10:19:28 GMT 53.666473 -0.924264 3,850 111 228 -1088
2018-07-21 10:19:24 GMT 53.667328 -0.929395 3,925 104 229 -1216
2018-07-21 10:19:18 GMT 53.668716 -0.941057 4,050 100 232 -1280
2018-07-21 10:19:13 GMT 53.669563 -0.949348 4,150 99 233 -1216
2018-07-21 10:19:08 GMT 53.670261 -0.958719 4,250 92 237 -1152
2018-07-21 10:19:03 GMT 53.670074 -0.966958 4,325 83 240 -1024
2018-07-21 10:18:57 GMT 53.668716 -0.977626 4,450 72 243 -1216
2018-07-21 10:18:53 GMT 53.667191 -0.986023 4,850 73 247 -1280
2018-07-21 10:18:48 GMT 53.665283 -0.995832 4,650 72 247 -1280
2018-07-21 10:18:43 GMT 53.663746 -1.004441 4,850 73 247 -1280
2018-07-21 10:18:36 GMT 53.661324 -1.017609 4,925 73 278 -960
2018-07-21 10:18:32 GMT 53.660297 -1.023667 4,975 73 247 -640
2018-07-21 10:18:25 GMT 53.657913 -1.036482 5,075 73 281 0
2018-07-21 10:18:20 GMT 53.655689 -1.048871 5,100 72 255 -704
2018-07-21 10:18:17 GMT 53.654800 -1.053196 5,125 72 257 -768
2018-07-21 10:18:14 GMT 53.654114 -1.057670 5,175 72 258 -768
2018-07-21 10:18:11 GMT 53.652760 -1.065028 5,200 72 262 -704
2018-07-21 10:18:05 GMT 53.650681 -1.076503 5,325 73 287 -1664
2018-07-21 10:18:02 GMT 53.649498 -1.082557 5,350 73 270 -960
2018-07-21 10:17:57 GMT 53.647614 -1.093532 5,475 72 276 -832
2018-07-21 10:17:54 GMT 53.646744 -1.097613 5,500 73 286 -3008
2018-07-21 10:17:51 GMT 53.645542 -1.104691 5,500 72 280 -1024
2018-07-21 10:17:47 GMT 53.643814 -1.114249 5,600 72 283 -1216
2018-07-21 10:17:43 GMT 53.642609 -1.120605 5,675 73 287 -1664
2018-07-21 10:17:40 GMT 53.641071 -1.129249 5,800 74 269 -2048
2018-07-21 10:17:36 GMT 53.639725 -1.136923 5,925 73 288 -2048
2018-07-21 10:17:33 GMT 53.638504 -1.143284 5,975 73 286 -3008
2018-07-21 10:17:28 GMT 53.636444 -1.154585 6,200 73 282 -3392
2018-07-21 10:17:25 GMT 53.635578 -1.160108 6,450 73 285 -3072
2018-07-21 10:17:22 GMT 53.634064 -1.168161 6,650 73 285 -3072
2018-07-21 10:17:19 GMT 53.633011 -1.174203 6,775 73 282 -3392
2018-07-21 10:17:15 GMT 53.631809 -1.181434 7,375 74 279 -3392
2018-07-21 10:17:12 GMT 53.630768 -1.187544 7,350 74 276 -3328
2018-07-21 10:17:09 GMT 53.629948 -1.193067 7,200 74 276 -3328
2018-07-21 10:17:06 GMT 53.628551 -1.201307 7,425 74 272 -3200
2018-07-21 10:16:59 GMT 53.626328 -1.214696 7,750 74 269 -2432
2018-07-21 10:16:55 GMT 53.624588 -1.224348 7,925 74 269 -1984
2018-07-21 10:16:52 GMT 53.624081 -1.227076 7,975 74 270 -2176
2018-07-21 10:16:49 GMT 53.623077 -1.233215 8,875 74 269 -2048
2018-07-21 10:16:45 GMT 53.621334 -1.243232 8,250 74 269 -1920
2018-07-21 10:16:42 GMT 53.620331 -1.249224 8,400 74 270 -1984
2018-07-21 10:16:38 GMT 53.618961 -1.257773 8,450 76 269 -2304
2018-07-21 10:16:32 GMT 53.617218 -1.268764 8,700 75 270 -2304
2018-07-21 10:16:29 GMT 53.616356 -1.274818 8,875 82 272 -768
2018-07-21 10:16:24 GMT 53.614975 -1.284223 8,925 81 271 -1024
2018-07-21 10:16:20 GMT 53.614151 -1.293483 9,000 85 273 -256
2018-07-21 10:16:17 GMT 53.613979 -1.299860 9,000 128 295 0
2018-07-21 10:16:14 GMT 53.613968 -1.306353 9,000 94 280 -128
2018-07-21 10:16:10 GMT 53.614471 -1.314122 9,000 116 294 -128
2018-07-21 10:16:07 GMT 53.615341 -1.320243 9,025 110 291 -256
2018-07-21 10:16:04 GMT 53.616539 -1.327488 9,025 118 295 0
2018-07-21 10:16:00 GMT 53.618587 -1.335889 9,025 116 294 -128
2018-07-21 10:15:57 GMT 53.620468 -1.342058 9,025 128 295 0
2018-07-21 10:15:54 GMT 53.622894 -1.348258 9,025 126 295 128
2018-07-21 10:15:50 GMT 53.625961 -1.355634 9,025 128 293 0
2018-07-21 10:15:46 GMT 53.629761 -1.363560 9,025 128 295 0
2018-07-21 10:15:43 GMT 53.631821 -1.367798 9,025 128 295 0
2018-07-21 10:15:38 GMT 53.636261 -1.377058 9,025 128 295 0
2018-07-21 10:15:34 GMT 53.640060 -1.384984 9,025 128 295 0
2018-07-21 10:15:27 GMT 53.645355 -1.396152 9,025 128 297 0
2018-07-21 10:15:24 GMT 53.648800 -1.403180 9,025 128 293 0
2018-07-21 10:15:17 GMT 53.654156 -1.414490 9,025 128 293 0
2018-07-21 10:15:13 GMT 53.657551 -1.421760 9,025 128 293 0
2018-07-21 10:15:09 GMT 53.660995 -1.428950 9,025 128 293 0
2018-07-21 10:15:06 GMT 53.663418 -1.433877 9,025 128 293 0
2018-07-21 10:15:02 GMT 53.666676 -1.440986 9,025 128 293 0
2018-07-21 10:14:56 GMT 53.671967 -1.452079 9,025 128 294 64
2018-07-21 10:14:52 GMT 53.674728 -1.458273 9,025 128 293 -64
2018-07-21 10:14:45 GMT 53.680923 -1.471199 9,025 128 297 0
2018-07-21 10:14:42 GMT 53.683823 -1.477347 9,025 128 294 0
2018-07-21 10:14:36 GMT 53.689133 -1.488883 9,025 128 296 0
2018-07-21 10:14:33 GMT 53.692047 -1.495029 9,025 128 295 64
2018-07-21 10:14:25 GMT 53.697922 -1.507717 9,025 128 296 0
2018-07-21 10:14:22 GMT 53.700474 -1.513044 9,025 128 296 0
2018-07-21 10:14:16 GMT 53.706341 -1.525403 9,025 128 300 -640
2018-07-21 10:14:12 GMT 53.709229 -1.531573 9,025 128 298 64
2018-07-21 10:14:05 GMT 53.715408 -1.544835 9,000 128 300 -640
2018-07-21 10:14:01 GMT 53.718155 -1.550642 9,025 128 300 -384
2018-07-21 10:13:54 GMT 53.724495 -1.564017 9,100 128 298 -768
2018-07-21 10:13:51 GMT 53.726913 -1.569187 9,150 128 298 -576
2018-07-21 10:13:45 GMT 53.732574 -1.581168 9,175 128 298 -320
2018-07-21 10:13:42 GMT 53.735687 -1.587760 9,200 128 299 -384
2018-07-21 10:13:35 GMT 53.741684 -1.600237 9,250 128 300 -576
2018-07-21 10:13:31 GMT 53.744606 -1.606427 9,275 128 300 -576
2018-07-21 10:13:24 GMT 53.750610 -1.618787 9,350 129 301 -576
2018-07-21 10:13:21 GMT 53.753357 -1.624603 9,375 128 302 -576
2018-07-21 10:13:14 GMT 53.759537 -1.637512 9,450 128 303 -576
2018-07-21 10:13:11 GMT 53.762283 -1.643319 9,500 128 306 -640
2018-07-21 10:13:07 GMT 53.765694 -1.650373 9,500 128 306 -640
2018-07-21 10:13:03 GMT 53.769150 -1.657601 9,550 128 308 -640
2018-07-21 10:12:59 GMT 53.772583 -1.665135 9,600 128 310 -704
2018-07-21 10:12:53 GMT 53.778263 -1.676950 9,675 128 314 -640
2018-07-21 10:12:50 GMT 53.781151 -1.683170 9,700 128 316 -640
2018-07-21 10:12:43 GMT 53.786827 -1.695691 9,775 127 321 -512
2018-07-21 10:12:40 GMT 53.790253 -1.703273 9,800 127 322 -448
2018-07-21 10:12:33 GMT 53.796280 -1.716291 9,850 127 321 -640
2018-07-21 10:12:30 GMT 53.799362 -1.723127 9,875 127 321 -768
2018-07-21 10:12:23 GMT 53.805542 -1.736703 10,025 127 321 -1024
2018-07-21 10:12:20 GMT 53.809158 -1.744629 10,075 127 322 -960
2018-07-21 10:12:13 GMT 53.814293 -1.756278 10,175 127 321 -960
2018-07-21 10:12:10 GMT 53.817551 -1.763467 10,200 127 322 -960
2018-07-21 10:12:07 GMT 53.819595 -1.767936 10,250 127 322 -960
2018-07-21 10:12:03 GMT 53.823898 -1.777588 10,325 127 322 -1024
2018-07-21 10:12:00 GMT 53.826462 -1.783081 10,375 128 322 -960
2018-07-21 10:11:57 GMT 53.829071 -1.788574 10,400 128 323 -960
2018-07-21 10:11:51 GMT 53.834702 -1.800424 10,525 128 324 -896
2018-07-21 10:11:48 GMT 53.836945 -1.805211 10,550 128 325 -960
2018-07-21 10:11:42 GMT 53.842785 -1.817591 10,650 128 328 -1088
2018-07-21 10:11:38 GMT 53.846554 -1.825669 10,725 128 331 -1536
2018-07-21 10:11:30 GMT 53.854797 -1.842957 11,000 128 335 -1600
2018-07-21 10:11:27 GMT 53.857727 -1.849177 11,050 128 336 -1728
2018-07-21 10:11:20 GMT 53.863918 -1.862344 11,275 128 338 -1728
2018-07-21 10:11:17 GMT 53.867317 -1.869938 11,350 128 339 -1792
2018-07-21 10:11:11 GMT 53.873016 -1.881958 11,525 128 340 -1920
2018-07-21 10:11:08 GMT 53.875397 -1.886902 11,600 128 340 -1920
2018-07-21 10:11:01 GMT 53.882950 -1.902911 11,925 128 342 -2304
2018-07-21 10:10:58 GMT 53.885517 -1.908390 11,975 128 343 -2368
2018-07-21 10:10:54 GMT 53.889801 -1.917518 12,350 129 341 -2560
2018-07-21 10:10:49 GMT 53.895309 -1.928650 12,350 129 341 -2496
2018-07-21 10:10:45 GMT 53.898739 -1.935694 12,500 129 341 -2560
2018-07-21 10:10:41 GMT 53.903023 -1.944742 12,750 129 341 -2816
2018-07-21 10:10:38 GMT 53.905441 -1.949750 12,800 129 340 -2880
2018-07-21 10:10:35 GMT 53.909027 -1.957101 13,100 128 340 -1024
2018-07-21 10:10:32 GMT 53.911972 -1.963335 13,100 128 340 -1024
2018-07-21 10:10:28 GMT 53.915218 -1.970511 13,225 128 339 -1856
2018-07-21 10:10:24 GMT 53.919342 -1.979265 13,325 128 340 -1024
2018-07-21 10:10:18 GMT 53.925694 -1.993049 13,425 127 340 -960
2018-07-21 10:10:13 GMT 53.929462 -2.001612 13,500 127 342 -1024
2018-07-21 10:10:08 GMT 53.935135 -2.013794 13,600 127 342 -960
2018-07-21 10:10:02 GMT 53.940628 -2.025643 13,675 127 342 -960
2018-07-21 10:09:57 GMT 53.944920 -2.035379 13,750 127 342 -1024
2018-07-21 10:09:53 GMT 53.949203 -2.044669 13,850 127 344 -960
2018-07-21 10:09:47 GMT 53.955067 -2.057594 13,925 127 345 -960
2018-07-21 10:09:44 GMT 53.958481 -2.064802 14,000 127 345 -1024
2018-07-21 10:09:37 GMT 53.964520 -2.077951 14,100 127 346 -960
2018-07-21 10:09:33 GMT 53.969315 -2.088291 14,175 127 347 -960
2018-07-21 10:09:27 GMT 53.974808 -2.100489 14,275 127 348 -1024
2018-07-21 10:09:22 GMT 53.980133 -2.111965 14,350 128 349 -960
2018-07-21 10:09:17 GMT 53.985092 -2.122785 14,425 127 349 -960
2018-07-21 10:09:12 GMT 53.990067 -2.133623 14,525 128 349 -960
2018-07-21 10:09:07 GMT 53.995056 -2.144434 14,600 128 349 -960
2018-07-21 10:09:03 GMT 53.999496 -2.154340 14,675 128 350 -960
2018-07-21 10:08:59 GMT 54.002274 -2.160025 14,700 128 350 -960
2018-07-21 10:08:56 GMT 54.005539 -2.167446 14,775 128 351 -1024
2018-07-21 10:08:49 GMT 54.013073 -2.183371 14,900 128 352 -960
2018-07-21 10:08:46 GMT 54.015820 -2.189430 14,925 128 351 -960
2018-07-21 10:08:42 GMT 54.019958 -2.198678 15,000 128 351 -960
2018-07-21 10:08:35 GMT 54.026295 -2.212049 15,100 128 353 -1024
2018-07-21 10:08:30 GMT 54.032135 -2.224731 15,200 128 354 -1024
2018-07-21 10:08:26 GMT 54.037125 -2.235247 15,275 128 354 -1024
2018-07-21 10:08:23 GMT 54.039001 -2.239485 15,425 128 355 -960
2018-07-21 10:08:20 GMT 54.043121 -2.248274 15,375 128 354 -1024
2018-07-21 10:08:15 GMT 54.046875 -2.255964 15,450 128 355 -960
2018-07-21 10:08:12 GMT 54.050316 -2.263345 15,500 128 355 -960
2018-07-21 10:08:08 GMT 54.054291 -2.271659 15,600 128 355 -960
2018-07-21 10:08:05 GMT 54.057343 -2.278128 15,625 128 354 -960
2018-07-21 10:08:02 GMT 54.060650 -2.285156 15,650 128 358 -960
2018-07-21 10:07:56 GMT 54.066792 -2.298081 15,750 129 354 -960
2018-07-21 10:07:53 GMT 54.069534 -2.303755 15,800 129 353 -1024
2018-07-21 10:07:50 GMT 54.073654 -2.312308 15,875 129 353 -960
2018-07-21 10:07:45 GMT 54.078644 -2.322588 15,950 129 353 -960
2018-07-21 10:07:42 GMT 54.081223 -2.328294 15,975 128 358 -960
2018-07-21 10:07:38 GMT 54.085365 -2.336857 16,175 129 354 -1024
2018-07-21 10:07:35 GMT 54.087929 -2.342027 16,075 129 354 -1024
2018-07-21 10:07:32 GMT 54.091511 -2.349862 16,200 128 358 -960
2018-07-21 10:07:29 GMT 54.094772 -2.356729 16,225 128 358 -896
2018-07-21 10:07:26 GMT 54.097870 -2.363473 16,250 128 358 -896
2018-07-21 10:07:23 GMT 54.099930 -2.367789 16,275 128 358 -960
2018-07-21 10:07:18 GMT 54.106110 -2.381130 16,375 127 359 -1088
2018-07-21 10:07:14 GMT 54.109528 -2.388719 16,450 127 359 -1088
2018-07-21 10:07:11 GMT 54.112656 -2.395412 16,500 127 359 -1024
2018-07-21 10:07:07 GMT 54.116928 -2.404794 16,575 127 360 -1024
2018-07-21 10:07:04 GMT 54.120346 -2.412362 16,625 127 361 -1024
2018-07-21 10:07:01 GMT 54.122608 -2.417396 16,675 127 361 -960
2018-07-21 10:06:57 GMT 54.126892 -2.426801 16,725 127 361 -1024
2018-07-21 10:06:54 GMT 54.130848 -2.435410 16,825 127 362 -1088
2018-07-21 10:06:51 GMT 54.133072 -2.440377 16,850 127 363 -1088
2018-07-21 10:06:44 GMT 54.140625 -2.457222 16,975 127 363 -960
2018-07-21 10:06:41 GMT 54.143188 -2.463056 17,000 127 363 -960
2018-07-21 10:06:34 GMT 54.150726 -2.479840 17,125 127 363 -1024
2018-07-21 10:06:31 GMT 54.153854 -2.486520 17,175 127 363 -1024
2018-07-21 10:06:24 GMT 54.161728 -2.503863 17,300 127 363 -960
2018-07-21 10:06:20 GMT 54.164474 -2.510062 17,350 127 363 -960
2018-07-21 10:06:13 GMT 54.172047 -2.526855 17,475 127 362 -960
2018-07-21 10:06:10 GMT 54.174934 -2.533237 17,500 127 362 -960
2018-07-21 10:06:04 GMT 54.181824 -2.548667 17,625 127 363 -1024
2018-07-21 10:06:01 GMT 54.184242 -2.554160 17,675 127 364 -1024
2018-07-21 10:05:58 GMT 54.187317 -2.561070 17,725 127 366 -1024
2018-07-21 10:05:53 GMT 54.192627 -2.573077 17,825 127 368 -1024
2018-07-21 10:05:50 GMT 54.195744 -2.579929 17,875 127 373 -1024
2018-07-21 10:05:42 GMT 54.203609 -2.597459 17,975 127 370 -960
2018-07-21 10:05:39 GMT 54.206360 -2.603446 18,025 127 370 -960
2018-07-21 10:05:32 GMT 54.214085 -2.620643 18,175 127 369 -960
2018-07-21 10:05:29 GMT 54.217342 -2.627994 18,200 127 370 -960
2018-07-21 10:05:23 GMT 54.224579 -2.644095 18,300 127 370 -960
2018-07-21 10:05:19 GMT 54.227631 -2.651179 18,350 127 371 -960
2018-07-21 10:05:13 GMT 54.234337 -2.665962 18,475 127 372 -960
2018-07-21 10:05:10 GMT 54.237442 -2.672974 18,500 127 372 -960
2018-07-21 10:05:07 GMT 54.240711 -2.680018 18,550 127 372 -1024
2018-07-21 10:05:02 GMT 54.245693 -2.691166 18,650 127 373 -1024
2018-07-21 10:04:58 GMT 54.249619 -2.699890 18,750 127 373 -896
2018-07-21 10:04:55 GMT 54.252548 -2.706639 18,750 127 373 -896
2018-07-21 10:04:51 GMT 54.256851 -2.715899 18,825 127 373 -960
2018-07-21 10:04:48 GMT 54.260101 -2.723275 18,875 127 373 -1024
2018-07-21 10:04:41 GMT 54.267990 -2.740604 18,975 127 373 -960
2018-07-21 10:04:38 GMT 54.270412 -2.746259 20,025 127 373 -960
2018-07-21 10:04:33 GMT 54.276901 -2.760864 19,125 127 373 -960
2018-07-21 10:04:30 GMT 54.278465 -2.764144 19,150 127 373 -960
2018-07-21 10:04:27 GMT 54.281570 -2.770978 19,200 127 373 -960
2018-07-21 10:04:20 GMT 54.289627 -2.788831 19,325 127 374 -1024
2018-07-21 10:04:17 GMT 54.292007 -2.794486 19,350 127 374 -1024
2018-07-21 10:04:10 GMT 54.300110 -2.812338 19,475 127 378 -960
2018-07-21 10:04:07 GMT 54.303177 -2.819043 19,525 127 379 -1024
2018-07-21 10:04:02 GMT 54.309704 -2.833807 19,625 127 380 -1088
2018-07-21 10:03:59 GMT 54.311600 -2.838108 19,650 127 381 -1088
2018-07-21 10:03:56 GMT 54.314869 -2.845293 19,725 127 383 -1088
2018-07-21 10:03:50 GMT 54.321388 -2.859775 19,825 127 386 -960
2018-07-21 10:03:47 GMT 54.324966 -2.868159 19,875 127 386 -960
2018-07-21 10:03:39 GMT 54.333584 -2.886991 20,025 127 387 -960
2018-07-21 10:03:36 GMT 54.336655 -2.893899 20,050 127 387 -960
2018-07-21 10:03:31 GMT 54.343369 -2.908792 20,150 127 387 -960
2018-07-21 10:03:28 GMT 54.344894 -2.912292 20,175 127 387 -960
2018-07-21 10:03:25 GMT 54.348175 -2.919617 20,225 127 387 -960
2018-07-21 10:03:18 GMT 54.356415 -2.938035 20,375 127 388 -1024
2018-07-21 10:03:14 GMT 54.362213 -2.951244 20,425 127 389 -1024
2018-07-21 10:03:08 GMT 54.367722 -2.963562 20,500 127 389 -960
2018-07-21 10:03:04 GMT 54.372025 -2.973337 20,575 130 393 -960
2018-07-21 10:03:00 GMT 54.375961 -2.982142 20,650 127 390 -1024
2018-07-21 10:02:57 GMT 54.379253 -2.989530 20,700 127 391 -1024
2018-07-21 10:02:54 GMT 54.381958 -2.996036 20,775 130 393 -960
2018-07-21 10:02:47 GMT 54.390198 -3.014778 20,850 126 392 -960
2018-07-21 10:02:44 GMT 54.393124 -3.021240 21,050 130 393 -960
2018-07-21 10:02:37 GMT 54.400852 -3.039301 21,025 126 393 -1024
2018-07-21 10:02:34 GMT 54.403973 -3.046292 21,075 126 394 -1024
2018-07-21 10:02:27 GMT 54.411652 -3.064353 21,200 127 394 -960
2018-07-21 10:02:24 GMT 54.414917 -3.071890 21,225 127 394 -960
2018-07-21 10:02:19 GMT 54.421101 -3.085161 21,325 131 394 -960
2018-07-21 10:02:16 GMT 54.423523 -3.089738 21,375 131 394 -896
2018-07-21 10:02:13 GMT 54.427296 -3.097146 21,575 152 421 -2368
2018-07-21 10:02:09 GMT 54.433136 -3.107596 21,500 135 394 -960
2018-07-21 10:02:06 GMT 54.436386 -3.112766 21,600 141 397 -896
2018-07-21 10:02:03 GMT 54.440327 -3.119118 21,550 137 395 -896
2018-07-21 10:01:58 GMT 54.447876 -3.130134 21,625 141 397 -896
2018-07-21 10:01:53 GMT 54.454926 -3.139505 21,750 153 425 -1216
2018-07-21 10:01:45 GMT 54.468307 -3.154658 21,900 149 410 -1344
2018-07-21 10:01:42 GMT 54.471909 -3.158246 21,950 151 412 -1344
2018-07-21 10:01:38 GMT 54.479805 -3.165144 22,100 153 415 -2304
2018-07-21 10:01:35 GMT 54.484646 -3.169223 22,250 153 415 -2432
2018-07-21 10:01:32 GMT 54.489075 -3.173191 22,325 153 425 -960
2018-07-21 10:01:27 GMT 54.498379 -3.181125 22,525 153 417 -2368
2018-07-21 10:01:22 GMT 54.506618 -3.188282 22,725 153 425 -960
2018-07-21 10:01:17 GMT 54.515511 -3.196023 23,625 152 421 -2368
2018-07-21 10:01:14 GMT 54.520493 -3.200101 23,075 153 420 -2304
2018-07-21 10:01:11 GMT 54.525333 -3.204429 23,175 153 425 -960
2018-07-21 10:01:07 GMT 54.533573 -3.211670 23,625 152 421 -2368
2018-07-21 10:01:04 GMT 54.538368 -3.215748 23,500 153 420 -2368
2018-07-21 10:01:01 GMT 54.542313 -3.219156 23,700 153 420 -2368
2018-07-21 10:00:57 GMT 54.550892 -3.226735 23,700 152 421 -2368
2018-07-21 10:00:54 GMT 54.555683 -3.231062 23,825 152 421 -2368
2018-07-21 10:00:50 GMT 54.562714 -3.237221 23,975 152 423 -2432
2018-07-21 10:00:46 GMT 54.568588 -3.242340 24,100 152 422 -2304
2018-07-21 10:00:41 GMT 54.577145 -3.250122 24,375 152 423 -2432
2018-07-21 10:00:37 GMT 54.584175 -3.256448 24,525 152 423 -2432
2018-07-21 10:00:34 GMT 54.590698 -3.262293 24,600 152 423 -2368
2018-07-21 10:00:30 GMT 54.596191 -3.267059 24,800 152 424 -1984
2018-07-21 10:00:27 GMT 54.602238 -3.272428 24,825 152 424 -1856
2018-07-21 10:00:23 GMT 54.609966 -3.279086 24,950 153 425 -1216
2018-07-21 10:00:20 GMT 54.614059 -3.282915 25,025 152 425 -448
2018-07-21 10:00:16 GMT 54.621460 -3.289194 25,025 152 425 -320
2018-07-21 10:00:12 GMT 54.627468 -3.294567 25,025 152 425 0
2018-07-21 10:00:09 GMT 54.632961 -3.299561 25,025 152 425 0
2018-07-21 10:00:06 GMT 54.638596 -3.304305 25,050 152 425 0
2018-07-21 10:00:02 GMT 54.645996 -3.310843 25,050 152 425 -64
2018-07-21 09:59:58 GMT 54.652512 -3.316706 25,050 152 425 -64
2018-07-21 09:59:54 GMT 54.661972 -3.325141 25,050 153 425 0
2018-07-21 09:59:51 GMT 54.664524 -3.327193 25,050 152 425 64
2018-07-21 09:59:48 GMT 54.672409 -3.334351 25,050 153 425 0
2018-07-21 09:59:42 GMT 54.681190 -3.342091 25,025 153 425 0
2018-07-21 09:59:38 GMT 54.687523 -3.347584 25,050 153 425 64
2018-07-21 09:59:29 GMT 54.702621 -3.360847 25,050 153 425 0
2018-07-21 09:59:26 GMT 54.708469 -3.365978 25,050 153 425 64
2018-07-21 09:59:21 GMT 54.717731 -3.373885 25,025 153 425 0
2018-07-21 09:59:17 GMT 54.724762 -3.380044 25,025 153 426 0
2018-07-21 09:59:09 GMT 54.737984 -3.391529 25,050 153 425 -64
2018-07-21 09:59:06 GMT 54.743317 -3.395987 25,050 153 425 0
2018-07-21 09:59:03 GMT 54.749680 -3.401480 25,050 153 425 -64
2018-07-21 09:58:59 GMT 54.756729 -3.407297 25,050 154 425 -64
2018-07-21 09:58:56 GMT 54.761353 -3.411255 25,050 154 425 -64
2018-07-21 09:58:53 GMT 54.767033 -3.415916 25,050 154 425 -64
2018-07-21 09:58:49 GMT 54.774399 -3.422080 25,050 154 425 0
2018-07-21 09:58:46 GMT 54.779388 -3.426200 25,050 154 425 0
2018-07-21 09:58:39 GMT 54.792587 -3.437056 25,050 154 426 64
2018-07-21 09:58:35 GMT 54.798920 -3.442216 25,050 154 426 0
2018-07-21 09:58:28 GMT 54.811478 -3.452292 25,050 155 426 0
2018-07-21 09:58:25 GMT 54.816467 -3.456250 25,050 155 427 -64
2018-07-21 09:58:22 GMT 54.821777 -3.460527 25,050 155 427 0
2018-07-21 09:58:18 GMT 54.828995 -3.466187 25,050 155 426 0
2018-07-21 09:58:14 GMT 54.836517 -3.472084 25,050 155 427 0
2018-07-21 09:58:08 GMT 54.847706 -3.480669 25,050 156 427 0
2018-07-21 09:58:03 GMT 54.856461 -3.487327 25,050 156 428 0
2018-07-21 09:58:00 GMT 54.863983 -3.493006 25,050 156 427 64
2018-07-21 09:57:57 GMT 54.866226 -3.494703 25,025 156 427 64
2018-07-21 09:57:51 GMT 54.878403 -3.504154 25,025 156 428 -64
2018-07-21 09:57:47 GMT 54.885975 -3.509799 25,025 156 427 0
2018-07-21 09:57:42 GMT 54.894028 -3.515958 25,025 155 427 0
2018-07-21 09:57:38 GMT 54.901241 -3.521701 25,025 155 428 0
2018-07-21 09:57:35 GMT 54.906921 -3.526278 25,050 154 427 -64
2018-07-21 09:57:32 GMT 54.912601 -3.530939 25,050 154 427 -64
2018-07-21 09:57:27 GMT 54.921165 -3.538180 25,050 154 428 0
2018-07-21 09:57:24 GMT 54.926468 -3.542606 25,050 154 428 0
2018-07-21 09:57:21 GMT 54.932480 -3.547752 25,050 153 427 0
2018-07-21 09:57:17 GMT 54.938156 -3.552579 25,050 153 428 0
2018-07-21 09:57:14 GMT 54.944489 -3.558072 25,050 153 427 -64
2018-07-21 09:57:09 GMT 54.952560 -3.565225 25,050 152 428 0
2018-07-21 09:57:06 GMT 54.957897 -3.570057 25,050 152 428 -64
2018-07-21 09:57:01 GMT 54.967670 -3.578630 25,050 152 427 0
2018-07-21 09:56:55 GMT 54.976593 -3.586551 25,050 152 427 64
2018-07-21 09:56:50 GMT 54.986389 -3.595276 25,050 152 427 0
2018-07-21 09:56:47 GMT 54.991882 -3.600284 25,050 152 426 -64
2018-07-21 09:56:43 GMT 54.999283 -3.607011 25,050 152 426 -64
2018-07-21 09:56:40 GMT 55.004261 -3.611256 25,050 152 426 0
2018-07-21 09:56:35 GMT 55.011803 -3.618331 25,050 152 426 0
2018-07-21 09:56:30 GMT 55.020538 -3.626054 25,050 152 425 0
2018-07-21 09:56:27 GMT 55.027260 -3.632063 25,050 152 425 0
2018-07-21 09:56:24 GMT 55.031357 -3.635809 25,050 152 425 64
2018-07-21 09:56:19 GMT 55.040817 -3.644391 25,050 152 425 0
2018-07-21 09:56:15 GMT 55.047867 -3.650773 25,050 152 425 64
2018-07-21 09:56:10 GMT 55.056446 -3.658614 25,050 152 425 64
2018-07-21 09:56:06 GMT 55.062778 -3.664273 25,050 152 425 0
2018-07-21 09:56:03 GMT 55.068272 -3.669267 25,050 152 425 64
2018-07-21 09:55:58 GMT 55.077026 -3.677350 25,050 152 425 0
2018-07-21 09:55:53 GMT 55.086136 -3.685590 25,050 152 425 0
2018-07-21 09:55:47 GMT 55.095409 -3.693986 25,050 152 425 64
2018-07-21 09:55:44 GMT 55.101742 -3.699812 25,050 152 425 0
2018-07-21 09:55:39 GMT 55.110168 -3.707386 25,025 152 428 64
2018-07-21 09:55:34 GMT 55.119106 -3.715626 25,050 152 426 64
2018-07-21 09:55:28 GMT 55.128883 -3.724532 25,050 152 426 64
2018-07-21 09:55:23 GMT 55.138321 -3.733332 25,025 152 426 0
2018-07-21 09:55:18 GMT 55.146057 -3.740360 25,025 152 426 0
2018-07-21 09:55:12 GMT 55.156860 -3.750166 25,050 152 427 0
2018-07-21 09:55:08 GMT 55.164589 -3.757324 25,050 152 427 64
2018-07-21 09:55:04 GMT 55.171097 -3.763383 25,025 152 428 64
2018-07-21 09:55:01 GMT 55.176411 -3.768144 25,025 152 429 0
2018-07-21 09:54:58 GMT 55.181580 -3.773157 25,025 152 429 64
2018-07-21 09:54:52 GMT 55.191868 -3.782376 25,025 152 429 0
2018-07-21 09:54:45 GMT 55.204422 -3.793030 25,025 156 433 0
2018-07-21 09:54:42 GMT 55.210236 -3.797554 25,050 171 445 320
2018-07-21 09:54:38 GMT 55.217983 -3.803184 25,050 159 438 -128
2018-07-21 09:54:35 GMT 55.222961 -3.806440 25,050 159 438 -128
2018-07-21 09:54:32 GMT 55.228596 -3.810092 25,050 171 445 320
2018-07-21 09:54:27 GMT 55.239075 -3.815891 25,050 163 443 -64
2018-07-21 09:54:24 GMT 55.244568 -3.818799 25,050 164 444 -64
2018-07-21 09:54:21 GMT 55.249374 -3.821061 25,050 165 444 -128
2018-07-21 09:54:18 GMT 55.257431 -3.824292 25,075 169 446 0
2018-07-21 09:54:15 GMT 55.262581 -3.826155 25,075 169 446 0
2018-07-21 09:54:11 GMT 55.269981 -3.828402 25,050 171 445 320
2018-07-21 09:54:07 GMT 55.278919 -3.830816 25,050 171 444 768
2018-07-21 09:54:02 GMT 55.289394 -3.833563 24,950 171 444 1408
2018-07-21 09:53:59 GMT 55.295029 -3.835144 24,800 171 442 1472
2018-07-21 09:53:54 GMT 55.303967 -3.837308 24,775 171 443 1408
2018-07-21 09:53:51 GMT 55.310852 -3.839237 24,600 171 441 1472
2018-07-21 09:53:48 GMT 55.317352 -3.840933 24,600 171 441 1472
2018-07-21 09:53:43 GMT 55.326279 -3.843195 24,500 171 439 1472
2018-07-21 09:53:40 GMT 55.332317 -3.844715 24,425 171 438 1600
2018-07-21 09:53:31 GMT 55.352196 -3.850209 24,125 170 434 2048
2018-07-21 09:53:24 GMT 55.366299 -3.854204 23,850 170 428 1984
2018-07-21 09:53:20 GMT 55.372971 -3.856040 23,600 170 428 1984
2018-07-21 09:53:09 GMT 55.394073 -3.862098 22,775 170 424 2880
2018-07-21 09:53:04 GMT 55.403030 -3.864441 22,775 170 424 2880
2018-07-21 09:52:58 GMT 55.415726 -3.868238 22,775 170 421 2688
2018-07-21 09:52:55 GMT 55.423092 -3.870267 22,725 170 420 2560
2018-07-21 09:52:50 GMT 55.431519 -3.872681 22,525 170 419 2560
2018-07-21 09:52:46 GMT 55.438019 -3.874619 22,400 170 418 2560
2018-07-21 09:52:38 GMT 55.453812 -3.879256 22,075 171 411 2176
2018-07-21 09:52:35 GMT 55.461731 -3.881264 21,875 171 408 2304
2018-07-21 09:52:28 GMT 55.471508 -3.884010 21,425 171 403 2112
2018-07-21 09:52:24 GMT 55.479561 -3.886070 21,500 171 402 2176
2018-07-21 09:52:18 GMT 55.490891 -3.888827 21,125 175 396 2944
2018-07-21 09:52:07 GMT 55.510483 -3.890409 20,500 183 393 4864
2018-07-21 09:52:02 GMT 55.520248 -3.888645 20,150 191 395 4096
2018-07-21 09:51:57 GMT 55.529205 -3.885415 19,850 196 397 3648
2018-07-21 09:51:54 GMT 55.534492 -3.882637 19,675 197 397 3584
2018-07-21 09:51:49 GMT 55.542919 -3.878002 19,350 198 401 3008
2018-07-21 09:51:46 GMT 55.548248 -3.874928 19,275 198 403 2624
2018-07-21 09:51:43 GMT 55.553577 -3.871822 19,175 198 405 2176
2018-07-21 09:51:36 GMT 55.566425 -3.864613 19,050 199 345 3840
2018-07-21 09:51:29 GMT 55.578625 -3.857574 19,050 199 345 3840
2018-07-21 09:51:25 GMT 55.585140 -3.853798 19,075 199 406 -64
2018-07-21 09:51:18 GMT 55.598190 -3.846463 19,100 199 400 -320
2018-07-21 09:51:12 GMT 55.609722 -3.839722 18,925 198 380 576
2018-07-21 09:51:06 GMT 55.618973 -3.834561 19,050 198 380 576
2018-07-21 09:51:02 GMT 55.625828 -3.830795 19,000 198 375 832
2018-07-21 09:50:57 GMT 55.633881 -3.826332 18,925 198 374 1216
2018-07-21 09:50:54 GMT 55.640076 -3.823076 18,750 199 345 3840
2018-07-21 09:50:47 GMT 55.650742 -3.817250 18,575 199 345 3840
2018-07-21 09:50:43 GMT 55.656227 -3.814144 18,475 198 370 2688
2018-07-21 09:50:34 GMT 55.672333 -3.804874 17,925 199 368 3840
2018-07-21 09:50:27 GMT 55.683014 -3.798689 17,500 199 366 3712
2018-07-21 09:50:13 GMT 55.704803 -3.786205 16,650 199 361 3584
2018-07-21 09:50:06 GMT 55.716278 -3.779125 16,200 200 355 3328
2018-07-21 09:49:55 GMT 55.732773 -3.769060 15,600 200 351 3648
2018-07-21 09:49:51 GMT 55.739136 -3.765049 15,350 200 350 3648
2018-07-21 09:49:45 GMT 55.748566 -3.759405 14,975 199 345 3904
2018-07-21 09:49:34 GMT 55.763855 -3.750114 13,550 212 292 4160
2018-07-21 09:49:28 GMT 55.774155 -3.743758 13,850 200 338 3840
2018-07-21 09:49:22 GMT 55.782898 -3.738265 13,500 200 332 3904
2018-07-21 09:49:14 GMT 55.794254 -3.731403 13,025 212 292 4160
2018-07-21 09:49:11 GMT 55.798862 -3.728485 12,825 199 329 3712
2018-07-21 09:49:04 GMT 55.808304 -3.722867 12,475 199 325 2624
2018-07-21 09:48:58 GMT 55.817413 -3.717540 12,300 199 305 2048
2018-07-21 09:48:54 GMT 55.822556 -3.714409 12,175 199 308 1792
2018-07-21 09:48:51 GMT 55.826523 -3.712047 12,050 199 302 2496
2018-07-21 09:48:44 GMT 55.835777 -3.706512 11,675 199 295 4096
2018-07-21 09:48:41 GMT 55.839363 -3.704453 11,475 199 294 4224
2018-07-21 09:48:34 GMT 55.848675 -3.698788 10,950 200 294 4544
2018-07-21 09:48:31 GMT 55.851929 -3.696733 10,750 200 294 4480
2018-07-21 09:48:22 GMT 55.863941 -3.689346 10,050 200 294 4480
2018-07-21 09:48:12 GMT 55.877815 -3.678532 9,225 210 292 4224
2018-07-21 09:48:01 GMT 55.888290 -3.663940 8,550 226 285 4032
2018-07-21 09:47:51 GMT 55.895691 -3.646462 7,925 243 279 3904
2018-07-21 09:47:40 GMT 55.900673 -3.623085 7,275 258 274 3456
2018-07-21 09:47:30 GMT 55.902721 -3.601112 6,650 261 268 3584
2018-07-21 09:47:20 GMT 55.904770 -3.579655 6,100 261 263 3136
2018-07-21 09:47:10 GMT 55.906677 -3.558239 5,700 262 252 1792
2018-07-21 09:47:00 GMT 55.908215 -3.538628 5,400 262 234 1920
2018-07-21 09:46:50 GMT 55.910110 -3.519287 4,975 257 220 3136
We lost coverage of the aircraft here for a total of 240 minutes
2018-07-21 05:46:26 GMT 49.131557 -0.409096 3,800 138 233 -768
2018-07-21 05:46:00 GMT 49.152466 -0.437411 4,125 138 234 -768
2018-07-21 05:45:40 GMT 49.170151 -0.455427 4,350 159 234 -704
2018-07-21 05:45:33 GMT 49.178558 -0.457834 4,475 176 235 -960
2018-07-21 05:45:20 GMT 49.192307 -0.457161 4,675 184 236 -960
2018-07-21 05:45:11 GMT 49.201584 -0.456496 4,800 184 237 -1024
2018-07-21 05:45:05 GMT 49.208633 -0.455792 4,975 184 238 -1088
2018-07-21 05:44:58 GMT 49.216843 -0.455065 5,050 184 238 -1152
2018-07-21 05:44:50 GMT 49.225594 -0.454415 5,200 184 238 -1152
2018-07-21 05:44:40 GMT 49.235916 -0.453538 5,400 184 238 -1216
2018-07-21 05:44:34 GMT 49.242599 -0.453045 5,525 184 238 -1152
2018-07-21 05:44:29 GMT 49.248077 -0.452536 5,625 184 237 -1280
2018-07-21 05:44:25 GMT 49.253246 -0.452030 5,725 184 236 -1216
2018-07-21 05:44:19 GMT 49.259438 -0.451524 5,825 183 236 -1280
2018-07-21 05:44:04 GMT 49.275375 -0.450299 6,150 184 235 -1088
2018-07-21 05:43:58 GMT 49.282242 -0.449806 6,250 184 235 -1088
2018-07-21 05:43:47 GMT 49.293747 -0.448777 6,450 184 236 -1088
2018-07-21 05:43:43 GMT 49.298588 -0.448416 6,525 184 236 -1024
2018-07-21 05:43:35 GMT 49.308178 -0.447548 6,650 183 241 -640
2018-07-21 05:43:22 GMT 49.321583 -0.446536 6,875 183 239 -1024
2018-07-21 05:43:11 GMT 49.334290 -0.445651 6,950 183 242 -576
2018-07-21 05:43:05 GMT 49.340607 -0.445158 7,050 183 248 -832
2018-07-21 05:43:00 GMT 49.346302 -0.444657 7,125 183 250 -576
2018-07-21 05:42:51 GMT 49.356403 -0.443934 7,225 184 254 -384
2018-07-21 05:42:45 GMT 49.364319 -0.443256 7,250 184 258 -384
2018-07-21 05:42:30 GMT 49.381496 -0.441694 7,350 184 269 -384
2018-07-21 05:42:26 GMT 49.387501 -0.441188 7,375 184 280 -384
2018-07-21 05:42:23 GMT 49.390732 -0.440862 7,400 184 273 -448
2018-07-21 05:42:13 GMT 49.403641 -0.439453 7,525 184 284 -576
2018-07-21 05:42:08 GMT 49.410126 -0.438947 7,525 184 284 -576
2018-07-21 05:42:02 GMT 49.418198 -0.438115 7,600 184 288 -1152
2018-07-21 05:41:55 GMT 49.427307 -0.437270 8,000 184 289 -1664
2018-07-21 05:41:51 GMT 49.432472 -0.436707 7,850 184 289 -1728
2018-07-21 05:41:47 GMT 49.438290 -0.436038 8,000 185 289 -1536
2018-07-21 05:41:40 GMT 49.447586 -0.435044 8,200 185 289 -1600
2018-07-21 05:41:31 GMT 49.459946 -0.433815 8,250 184 292 -1024
2018-07-21 05:41:26 GMT 49.466129 -0.433143 8,425 184 292 -1024
2018-07-21 05:41:17 GMT 49.477955 -0.431956 8,575 184 292 -1024
2018-07-21 05:41:14 GMT 49.482056 -0.431430 8,625 184 292 -960
2018-07-21 05:41:10 GMT 49.487728 -0.430916 8,750 184 289 -960
2018-07-21 05:41:05 GMT 49.494965 -0.430201 8,825 184 290 -960
2018-07-21 05:41:02 GMT 49.498718 -0.429840 8,825 184 290 -960
2018-07-21 05:40:59 GMT 49.502159 -0.429506 8,875 184 286 -1024
2018-07-21 05:40:55 GMT 49.507141 -0.428828 8,925 184 286 -1024
2018-07-21 05:40:52 GMT 49.511608 -0.428467 9,125 184 286 -1024
2018-07-21 05:40:47 GMT 49.518967 -0.427799 9,275 184 292 -1024
2018-07-21 05:40:41 GMT 49.528091 -0.426982 9,200 184 290 -960
2018-07-21 05:40:30 GMT 49.541290 -0.425937 9,375 183 291 -960
2018-07-21 05:40:26 GMT 49.545780 -0.425572 9,425 183 291 -960
2018-07-21 05:40:19 GMT 49.555553 -0.424904 9,525 183 291 -960
2018-07-21 05:40:12 GMT 49.566170 -0.424013 9,675 184 291 -1088
2018-07-21 05:40:00 GMT 49.581997 -0.422677 9,850 185 298 -960
2018-07-21 05:39:50 GMT 49.595215 -0.421311 10,025 185 294 -960
2018-07-21 05:39:46 GMT 49.600021 -0.420588 10,075 185 295 -1088
2018-07-21 05:39:41 GMT 49.606857 -0.419930 10,150 185 295 -1088
2018-07-21 05:39:38 GMT 49.611008 -0.419360 10,400 185 297 -1024
2018-07-21 05:39:29 GMT 49.625431 -0.417703 10,425 185 298 -960
2018-07-21 05:39:21 GMT 49.634834 -0.416441 10,525 185 296 -960
2018-07-21 05:39:17 GMT 49.639984 -0.415818 10,550 185 296 -960
2018-07-21 05:39:10 GMT 49.649780 -0.414589 10,675 185 295 -1024
2018-07-21 05:39:06 GMT 49.656326 -0.413722 10,750 184 297 -1152
2018-07-21 05:39:02 GMT 49.661819 -0.413216 10,825 184 299 -1152
2018-07-21 05:38:57 GMT 49.668865 -0.412507 10,925 184 300 -1088
2018-07-21 05:38:53 GMT 49.672943 -0.412204 11,075 184 303 -1216
2018-07-21 05:38:48 GMT 49.679989 -0.411468 11,075 184 304 -1280
2018-07-21 05:38:45 GMT 49.684616 -0.410975 11,175 184 305 -1408
2018-07-21 05:38:42 GMT 49.688927 -0.410651 11,250 185 313 -960
2018-07-21 05:38:39 GMT 49.692032 -0.410325 11,275 185 311 -896
2018-07-21 05:38:35 GMT 49.698898 -0.409458 11,325 185 311 -896
2018-07-21 05:38:30 GMT 49.706757 -0.408573 11,400 185 314 -960
2018-07-21 05:38:25 GMT 49.715195 -0.407723 11,525 185 318 -1792
2018-07-21 05:38:18 GMT 49.723099 -0.406865 11,750 185 319 -1728
2018-07-21 05:38:14 GMT 49.728916 -0.406197 11,850 185 320 -1152
2018-07-21 05:38:11 GMT 49.734055 -0.405482 11,850 185 321 -1024
2018-07-21 05:38:07 GMT 49.738724 -0.404976 11,925 185 322 -960
2018-07-21 05:38:04 GMT 49.744034 -0.404254 12,300 185 321 -960
2018-07-21 05:37:59 GMT 49.750889 -0.403451 12,175 185 321 -960
2018-07-21 05:37:56 GMT 49.755890 -0.402736 12,125 185 321 -1024
2018-07-21 05:37:53 GMT 49.759827 -0.402263 12,150 185 321 -960
2018-07-21 05:37:49 GMT 49.766342 -0.401372 12,200 185 321 -1024
2018-07-21 05:37:45 GMT 49.771652 -0.400853 12,275 185 322 -1024
2018-07-21 05:37:42 GMT 49.776627 -0.400134 12,350 185 321 -960
2018-07-21 05:37:39 GMT 49.781101 -0.399665 12,675 185 323 -960
2018-07-21 05:37:34 GMT 49.787617 -0.398997 12,475 185 323 -1024
2018-07-21 05:37:31 GMT 49.793289 -0.398254 12,525 185 323 -1024
2018-07-21 05:37:28 GMT 49.796906 -0.397965 12,575 185 323 -1024
2018-07-21 05:37:25 GMT 49.803261 -0.397215 12,625 185 323 -960
2018-07-21 05:37:21 GMT 49.807869 -0.396770 12,675 185 323 -960
2018-07-21 05:37:17 GMT 49.815083 -0.395879 12,975 184 324 -1024
2018-07-21 05:37:12 GMT 49.821442 -0.395219 12,875 184 323 -960
2018-07-21 05:37:08 GMT 49.827438 -0.394496 12,975 184 324 -1024
2018-07-21 05:37:02 GMT 49.837242 -0.393504 13,000 184 324 -1024
2018-07-21 05:36:57 GMT 49.844101 -0.392761 13,075 184 325 -1024
2018-07-21 05:36:52 GMT 49.851162 -0.392093 13,300 184 325 -960
2018-07-21 05:36:45 GMT 49.861263 -0.391054 13,250 184 327 -960
2018-07-21 05:36:41 GMT 49.867268 -0.390534 13,325 184 326 -1024
2018-07-21 05:36:36 GMT 49.875183 -0.389718 13,900 184 331 -1024
2018-07-21 05:36:30 GMT 49.884430 -0.389003 13,500 184 341 -1152
2018-07-21 05:36:26 GMT 49.890965 -0.388307 13,625 184 329 -1024
2018-07-21 05:36:22 GMT 49.897842 -0.387774 13,675 184 329 -1024
2018-07-21 05:36:18 GMT 49.903336 -0.387268 13,725 184 330 -1024
2018-07-21 05:36:11 GMT 49.915359 -0.386229 13,875 184 331 -1024
2018-07-21 05:36:07 GMT 49.920502 -0.385895 13,925 184 331 -1024
2018-07-21 05:36:00 GMT 49.931488 -0.384738 14,050 185 332 -1024
2018-07-21 05:35:57 GMT 49.936119 -0.384225 14,125 185 333 -1024
2018-07-21 05:35:54 GMT 49.939892 -0.383705 14,175 185 334 -1024
2018-07-21 05:35:49 GMT 49.946228 -0.383004 14,625 184 343 -1216
2018-07-21 05:35:44 GMT 49.953644 -0.381992 14,375 185 340 -1152
2018-07-21 05:35:40 GMT 49.962749 -0.380958 14,400 184 342 -1216
2018-07-21 05:35:34 GMT 49.969940 -0.380257 14,500 184 341 -1216
2018-07-21 05:35:30 GMT 49.976620 -0.379548 14,625 185 347 -1216
2018-07-21 05:35:27 GMT 49.981430 -0.379028 14,625 185 347 -1216
2018-07-21 05:35:24 GMT 49.986603 -0.378161 15,000 203 359 0
2018-07-21 05:35:21 GMT 49.990356 -0.377510 14,775 195 358 -256
2018-07-21 05:35:18 GMT 49.997059 -0.375985 14,825 190 354 -1216
2018-07-21 05:35:15 GMT 50.002029 -0.374619 14,950 192 355 -1152
2018-07-21 05:35:12 GMT 50.005829 -0.373391 14,950 192 355 -1152
2018-07-21 05:35:09 GMT 50.011303 -0.371308 15,000 195 359 -320
2018-07-21 05:35:06 GMT 50.015442 -0.369632 15,000 198 359 0
2018-07-21 05:35:01 GMT 50.022800 -0.366335 15,000 197 359 0
2018-07-21 05:34:58 GMT 50.029179 -0.363068 15,000 202 359 0
2018-07-21 05:34:55 GMT 50.034161 -0.360322 15,000 201 360 0
2018-07-21 05:34:52 GMT 50.036865 -0.358646 15,000 202 359 0
2018-07-21 05:34:49 GMT 50.041855 -0.355538 15,000 203 359 0
2018-07-21 05:34:46 GMT 50.047348 -0.351924 15,000 203 359 0
2018-07-21 05:34:43 GMT 50.052338 -0.348816 15,000 203 359 0
2018-07-21 05:34:40 GMT 50.055573 -0.346589 15,000 203 359 -64
2018-07-21 05:34:37 GMT 50.062462 -0.342284 15,000 203 359 -64
2018-07-21 05:34:33 GMT 50.066940 -0.339203 15,000 203 359 0
2018-07-21 05:34:30 GMT 50.071541 -0.336345 15,000 203 358 0
2018-07-21 05:34:26 GMT 50.078243 -0.332039 15,000 203 358 64
2018-07-21 05:34:23 GMT 50.082016 -0.329590 15,000 203 359 64
2018-07-21 05:34:18 GMT 50.089600 -0.324603 15,000 204 358 0
2018-07-21 05:34:15 GMT 50.094543 -0.321350 15,000 204 359 -64
2018-07-21 05:34:12 GMT 50.099007 -0.318307 15,000 208 358 0
2018-07-21 05:34:07 GMT 50.106079 -0.313472 15,000 205 358 0
2018-07-21 05:34:03 GMT 50.113625 -0.308137 15,000 205 358 64
2018-07-21 05:34:00 GMT 50.117207 -0.305613 15,000 206 357 64
2018-07-21 05:33:57 GMT 50.120651 -0.302866 15,000 206 358 64
2018-07-21 05:33:53 GMT 50.126659 -0.298338 15,000 207 358 0
2018-07-21 05:33:50 GMT 50.131119 -0.294968 15,000 207 358 0
2018-07-21 05:33:47 GMT 50.136108 -0.290989 15,000 209 358 -64
2018-07-21 05:33:42 GMT 50.145046 -0.283937 15,000 209 358 0
2018-07-21 05:33:38 GMT 50.148956 -0.280523 15,000 209 358 -64
2018-07-21 05:33:33 GMT 50.160130 -0.271095 15,000 209 358 64
2018-07-21 05:33:30 GMT 50.161011 -0.270394 15,000 210 358 -64
2018-07-21 05:33:27 GMT 50.165634 -0.266274 15,000 210 358 0
2018-07-21 05:33:23 GMT 50.172836 -0.260109 15,000 209 358 128
2018-07-21 05:33:20 GMT 50.175430 -0.257890 15,000 204 358 128
2018-07-21 05:33:16 GMT 50.182983 -0.251529 15,000 208 358 0
2018-07-21 05:33:13 GMT 50.185036 -0.249939 15,000 208 358 0
2018-07-21 05:33:10 GMT 50.190529 -0.245856 15,000 204 358 -64
2018-07-21 05:33:05 GMT 50.197044 -0.241180 15,000 204 357 64
2018-07-21 05:33:02 GMT 50.202209 -0.237579 15,000 204 358 -64
2018-07-21 05:32:59 GMT 50.208729 -0.233311 15,025 204 358 -64
2018-07-21 05:32:56 GMT 50.211456 -0.231580 15,000 204 358 128
2018-07-21 05:32:53 GMT 50.215073 -0.229195 15,000 204 357 64
2018-07-21 05:32:49 GMT 50.221756 -0.224714 15,000 204 358 64
2018-07-21 05:32:46 GMT 50.226933 -0.221137 15,000 204 358 64
2018-07-21 05:32:43 GMT 50.230865 -0.218570 15,000 204 358 128
2018-07-21 05:32:39 GMT 50.237549 -0.214089 15,000 204 359 0
2018-07-21 05:32:36 GMT 50.242203 -0.210967 15,000 204 359 -64
2018-07-21 05:32:33 GMT 50.246483 -0.208221 15,000 204 360 0
2018-07-21 05:32:29 GMT 50.254028 -0.203103 15,000 204 359 0
2018-07-21 05:32:26 GMT 50.257469 -0.200872 15,000 204 359 0
2018-07-21 05:32:23 GMT 50.261398 -0.198260 15,000 204 359 0
2018-07-21 05:32:18 GMT 50.270878 -0.191964 15,000 204 359 0
2018-07-21 05:32:14 GMT 50.275497 -0.188864 15,000 204 360 0
2018-07-21 05:32:11 GMT 50.279114 -0.186478 15,000 204 360 0
2018-07-21 05:32:08 GMT 50.284607 -0.182865 15,000 204 360 -64
2018-07-21 05:32:05 GMT 50.290428 -0.178899 15,000 204 361 0
2018-07-21 05:32:02 GMT 50.294712 -0.176004 15,000 204 360 -64
2018-07-21 05:31:57 GMT 50.302765 -0.170659 15,000 204 361 0
2018-07-21 05:31:53 GMT 50.307095 -0.167913 15,000 204 361 64
2018-07-21 05:31:50 GMT 50.311523 -0.164795 15,000 204 361 64
2018-07-21 05:31:47 GMT 50.317383 -0.160861 15,000 204 361 0
2018-07-21 05:31:44 GMT 50.321667 -0.158114 15,000 204 360 -64
2018-07-21 05:31:39 GMT 50.329376 -0.152941 15,000 204 360 -64
2018-07-21 05:31:35 GMT 50.336105 -0.148315 15,000 204 360 0
2018-07-21 05:31:32 GMT 50.341915 -0.144381 15,000 204 360 0
2018-07-21 05:31:29 GMT 50.345169 -0.142172 15,000 204 360 0
2018-07-21 05:31:25 GMT 50.350529 -0.138591 15,000 204 360 0
2018-07-21 05:31:22 GMT 50.355324 -0.135325 15,000 204 360 0
2018-07-21 05:31:19 GMT 50.359955 -0.132197 15,000 204 360 0
2018-07-21 05:31:16 GMT 50.365101 -0.128570 15,000 204 360 0
2018-07-21 05:31:13 GMT 50.368378 -0.126343 15,000 204 359 0
2018-07-21 05:31:10 GMT 50.373013 -0.123299 15,000 204 360 0
2018-07-21 05:31:07 GMT 50.377995 -0.120033 15,000 204 360 0
2018-07-21 05:31:03 GMT 50.384308 -0.115718 15,000 204 360 0
2018-07-21 05:31:00 GMT 50.388981 -0.112610 15,000 204 360 0
2018-07-21 05:30:56 GMT 50.393417 -0.109574 15,000 204 359 0
2018-07-21 05:30:53 GMT 50.399597 -0.105454 15,000 204 359 0
2018-07-21 05:30:50 GMT 50.404247 -0.102366 15,000 204 359 -64
2018-07-21 05:30:46 GMT 50.409897 -0.098588 15,000 204 358 0
2018-07-21 05:30:43 GMT 50.413696 -0.095986 15,000 204 358 64
2018-07-21 05:30:40 GMT 50.419331 -0.092196 15,000 204 358 64
2018-07-21 05:30:35 GMT 50.426376 -0.087385 15,000 204 359 -64
2018-07-21 05:30:32 GMT 50.431713 -0.083956 15,000 204 359 -64
2018-07-21 05:30:28 GMT 50.436859 -0.080518 15,000 204 359 0
2018-07-21 05:30:25 GMT 50.441490 -0.077424 15,000 204 359 -64
2018-07-21 05:30:22 GMT 50.447845 -0.073146 15,000 204 358 -64
2018-07-21 05:30:18 GMT 50.452477 -0.070075 15,000 204 359 -64
2018-07-21 05:30:15 GMT 50.458145 -0.066279 15,000 203 359 0
2018-07-21 05:30:12 GMT 50.461555 -0.064062 15,000 203 359 0
2018-07-21 05:30:09 GMT 50.466396 -0.060796 15,000 204 359 -64
2018-07-21 05:30:06 GMT 50.472198 -0.056811 15,000 204 358 -64
2018-07-21 05:30:02 GMT 50.477692 -0.053269 15,025 204 358 -64
2018-07-21 05:29:59 GMT 50.483871 -0.049149 15,025 204 358 128
2018-07-21 05:29:55 GMT 50.487488 -0.046692 15,000 204 358 128
2018-07-21 05:29:51 GMT 50.494171 -0.042283 15,000 204 359 64
2018-07-21 05:29:47 GMT 50.499355 -0.038823 15,000 204 359 0
2018-07-21 05:29:44 GMT 50.504654 -0.035200 15,000 204 359 -64
2018-07-21 05:29:41 GMT 50.510147 -0.031441 15,000 204 359 -64
2018-07-21 05:29:38 GMT 50.513763 -0.029056 15,000 204 359 0
2018-07-21 05:29:35 GMT 50.518208 -0.025981 15,000 204 359 0
2018-07-21 05:29:31 GMT 50.524750 -0.021467 15,000 207 358 0
2018-07-21 05:29:28 GMT 50.530407 -0.017519 15,000 191 357 64
2018-07-21 05:29:24 GMT 50.535049 -0.014456 15,000 204 359 0
2018-07-21 05:29:21 GMT 50.540180 -0.010838 15,000 205 359 0
2018-07-21 05:29:17 GMT 50.545853 -0.006722 15,000 191 357 64
2018-07-21 05:29:14 GMT 50.550156 -0.003831 15,000 205 358 0
2018-07-21 05:29:11 GMT 50.554611 -0.000520 15,000 205 359 0
2018-07-21 05:29:08 GMT 50.558578 0.002385 15,000 206 358 -64
2018-07-21 05:29:05 GMT 50.563690 0.006161 15,000 206 358 0
2018-07-21 05:29:02 GMT 50.568531 0.009724 15,000 206 358 0
2018-07-21 05:28:59 GMT 50.573837 0.013881 15,000 207 358 0
2018-07-21 05:28:56 GMT 50.577423 0.016628 15,000 207 358 0
2018-07-21 05:28:53 GMT 50.581741 0.020093 15,000 207 358 64
2018-07-21 05:28:50 GMT 50.586224 0.023680 15,000 207 358 0
2018-07-21 05:28:47 GMT 50.590668 0.027104 15,000 204 357 -64
2018-07-21 05:28:44 GMT 50.596512 0.030880 15,025 202 358 -64
2018-07-21 05:28:40 GMT 50.602341 0.034332 15,025 198 357 0
2018-07-21 05:28:37 GMT 50.606094 0.035995 15,025 196 356 64
2018-07-21 05:28:34 GMT 50.611954 0.038091 15,000 190 357 64
2018-07-21 05:28:31 GMT 50.615551 0.039120 15,000 188 357 64
2018-07-21 05:28:28 GMT 50.623463 0.039937 15,000 159 355 0
2018-07-21 05:28:25 GMT 50.625687 0.039970 15,000 177 356 128
2018-07-21 05:28:22 GMT 50.631332 0.039120 15,000 171 356 64
2018-07-21 05:28:19 GMT 50.635483 0.037946 15,000 164 356 -64
2018-07-21 05:28:16 GMT 50.640270 0.036002 15,000 161 356 -64
2018-07-21 05:28:13 GMT 50.644913 0.033609 15,000 160 356 0
2018-07-21 05:28:09 GMT 50.650928 0.030212 15,000 159 356 0
2018-07-21 05:28:06 GMT 50.656422 0.026946 15,000 159 355 0
2018-07-21 05:28:03 GMT 50.660339 0.024502 15,000 159 356 0
2018-07-21 05:28:00 GMT 50.666199 0.021082 15,000 159 356 0
2018-07-21 05:27:57 GMT 50.669270 0.019226 15,000 159 356 0
2018-07-21 05:27:54 GMT 50.673935 0.016479 15,000 159 355 0
2018-07-21 05:27:51 GMT 50.679428 0.013213 15,000 159 356 0
2018-07-21 05:27:48 GMT 50.684029 0.010452 15,000 159 356 0
2018-07-21 05:27:45 GMT 50.689011 0.007553 15,000 159 356 0
2018-07-21 05:27:42 GMT 50.692474 0.005493 15,000 159 355 0
2018-07-21 05:27:39 GMT 50.698273 0.002060 15,000 159 355 0
2018-07-21 05:27:35 GMT 50.703461 -0.001039 15,000 159 355 0
2018-07-21 05:27:31 GMT 50.710327 -0.004974 15,000 159 355 0
2018-07-21 05:27:28 GMT 50.717361 -0.009308 15,000 159 355 0
2018-07-21 05:27:24 GMT 50.720943 -0.011520 15,000 159 355 0
2018-07-21 05:27:21 GMT 50.725571 -0.014253 15,000 159 355 0
2018-07-21 05:27:18 GMT 50.729370 -0.016331 15,000 159 355 0
2018-07-21 05:27:14 GMT 50.734535 -0.019455 15,000 159 355 0
2018-07-21 05:27:11 GMT 50.741547 -0.023680 15,000 159 355 0
2018-07-21 05:27:08 GMT 50.745346 -0.025981 15,000 159 355 0
2018-07-21 05:27:05 GMT 50.751156 -0.029373 15,000 159 355 0
2018-07-21 05:27:02 GMT 50.754593 -0.031252 15,000 159 355 0
2018-07-21 05:26:59 GMT 50.757706 -0.033182 15,000 159 355 0
2018-07-21 05:26:56 GMT 50.764751 -0.037308 15,000 159 355 0
2018-07-21 05:26:53 GMT 50.767822 -0.039139 15,000 159 355 0
2018-07-21 05:26:50 GMT 50.772446 -0.041941 15,000 159 355 0
2018-07-21 05:26:47 GMT 50.777252 -0.044836 15,000 159 355 0
2018-07-21 05:26:43 GMT 50.782578 -0.047913 15,000 159 355 0
2018-07-21 05:26:40 GMT 50.788773 -0.051498 15,000 159 355 0
2018-07-21 05:26:37 GMT 50.792355 -0.053558 15,000 159 355 0
2018-07-21 05:26:34 GMT 50.796982 -0.056342 15,000 159 355 0
2018-07-21 05:26:31 GMT 50.802475 -0.059608 15,000 159 355 -64
2018-07-21 05:26:28 GMT 50.807114 -0.062332 15,000 159 355 -64
2018-07-21 05:26:25 GMT 50.810230 -0.064087 15,000 159 355 0
2018-07-21 05:26:22 GMT 50.816376 -0.067673 15,000 159 354 0
2018-07-21 05:26:19 GMT 50.820007 -0.069885 15,000 159 355 0
2018-07-21 05:26:16 GMT 50.824989 -0.072784 15,000 159 354 0
2018-07-21 05:26:13 GMT 50.829620 -0.075568 15,000 159 354 0
2018-07-21 05:26:10 GMT 50.834251 -0.078278 15,000 159 354 0
2018-07-21 05:26:07 GMT 50.840443 -0.081940 15,000 159 354 0
2018-07-21 05:26:04 GMT 50.843330 -0.083771 15,000 159 354 0
2018-07-21 05:26:01 GMT 50.847660 -0.086365 15,000 159 354 0
2018-07-21 05:25:58 GMT 50.853291 -0.089645 15,000 159 354 64
2018-07-21 05:25:55 GMT 50.858459 -0.092716 15,000 159 354 64
2018-07-21 05:25:52 GMT 50.860508 -0.093918 15,000 159 354 64
2018-07-21 05:25:49 GMT 50.866188 -0.097198 15,000 159 354 -64
2018-07-21 05:25:46 GMT 50.871323 -0.100287 15,000 159 354 64
2018-07-21 05:25:43 GMT 50.876476 -0.103378 15,000 159 354 -64
2018-07-21 05:25:40 GMT 50.880245 -0.105591 15,000 159 354 -64
2018-07-21 05:25:37 GMT 50.884872 -0.108379 15,000 159 354 64
2018-07-21 05:25:34 GMT 50.889511 -0.111084 15,000 159 354 64
2018-07-21 05:25:31 GMT 50.895515 -0.114670 15,000 159 354 64
2018-07-21 05:25:28 GMT 50.899658 -0.117064 15,000 159 355 0
2018-07-21 05:25:25 GMT 50.903275 -0.119365 15,000 159 355 0
2018-07-21 05:25:22 GMT 50.907898 -0.122070 15,000 159 355 0
2018-07-21 05:25:19 GMT 50.913025 -0.125155 15,000 159 355 0
2018-07-21 05:25:16 GMT 50.916466 -0.127258 15,000 159 356 0
2018-07-21 05:25:13 GMT 50.920441 -0.129609 15,000 159 356 0
2018-07-21 05:25:10 GMT 50.925728 -0.132751 15,000 159 357 -64
2018-07-21 05:25:07 GMT 50.931919 -0.136337 15,000 159 356 0
2018-07-21 05:25:04 GMT 50.936554 -0.139259 15,000 159 356 0
2018-07-21 05:25:01 GMT 50.940170 -0.141338 15,000 159 357 0
2018-07-21 05:24:58 GMT 50.947540 -0.145792 15,000 159 357 0
2018-07-21 05:24:55 GMT 50.950104 -0.147276 15,000 159 357 -64
2018-07-21 05:24:52 GMT 50.953033 -0.149206 15,000 159 357 0
2018-07-21 05:24:49 GMT 50.958363 -0.152435 15,000 159 357 -64
2018-07-21 05:24:46 GMT 50.963341 -0.155411 15,000 159 357 -64
2018-07-21 05:24:43 GMT 50.968834 -0.158844 15,000 158 356 0
2018-07-21 05:24:40 GMT 50.972607 -0.161057 15,000 158 356 0
2018-07-21 05:24:37 GMT 50.977249 -0.163756 15,000 158 356 0
2018-07-21 05:24:34 GMT 50.982742 -0.167245 15,000 158 356 0
2018-07-21 05:24:30 GMT 50.987877 -0.170288 15,000 158 356 0
2018-07-21 05:24:27 GMT 50.992157 -0.173035 15,000 158 356 0
2018-07-21 05:24:24 GMT 50.997482 -0.176152 15,000 158 355 0
2018-07-21 05:24:21 GMT 51.001785 -0.178751 15,000 158 355 0
2018-07-21 05:24:18 GMT 51.006592 -0.181794 15,000 158 354 0
2018-07-21 05:24:15 GMT 51.011246 -0.184555 15,000 158 354 0
2018-07-21 05:24:12 GMT 51.016739 -0.187988 15,000 158 354 64
2018-07-21 05:24:09 GMT 51.020142 -0.190034 15,000 158 353 -64
2018-07-21 05:24:06 GMT 51.026184 -0.193820 15,000 158 353 0
2018-07-21 05:24:03 GMT 51.028423 -0.195007 15,000 158 353 -64
2018-07-21 05:24:00 GMT 51.035080 -0.199127 15,000 158 353 -64
2018-07-21 05:23:57 GMT 51.038197 -0.201035 15,000 158 353 -64
2018-07-21 05:23:54 GMT 51.043854 -0.204657 15,000 158 353 0
2018-07-21 05:23:51 GMT 51.048485 -0.207367 15,000 159 354 128
2018-07-21 05:23:48 GMT 51.052414 -0.209779 15,000 158 355 64
2018-07-21 05:23:45 GMT 51.057053 -0.212555 15,000 159 354 128
2018-07-21 05:23:42 GMT 51.062897 -0.216163 14,975 157 354 0
2018-07-21 05:23:39 GMT 51.066875 -0.218887 15,000 155 355 -64
2018-07-21 05:23:36 GMT 51.073204 -0.224228 15,000 150 355 -128
2018-07-21 05:23:33 GMT 51.074570 -0.225442 15,000 149 355 -128
2018-07-21 05:23:30 GMT 51.079395 -0.230026 15,000 149 355 -64
2018-07-21 05:23:27 GMT 51.083351 -0.233688 15,000 148 358 -128
2018-07-21 05:23:24 GMT 51.087616 -0.237765 15,000 149 355 64
2018-07-21 05:23:21 GMT 51.090363 -0.240512 15,000 148 357 64
2018-07-21 05:23:18 GMT 51.095692 -0.245514 15,000 148 357 64
2018-07-21 05:23:15 GMT 51.101166 -0.250681 15,000 148 357 64
2018-07-21 05:23:12 GMT 51.105328 -0.254745 15,000 148 357 64
2018-07-21 05:23:08 GMT 51.110447 -0.259552 15,000 148 357 -128
2018-07-21 05:23:05 GMT 51.113892 -0.262833 15,000 148 358 -128
2018-07-21 05:23:02 GMT 51.119572 -0.268326 15,000 148 358 -64
2018-07-21 05:22:59 GMT 51.122318 -0.271072 15,000 148 357 -64
2018-07-21 05:22:56 GMT 51.126572 -0.275178 15,025 148 357 0
2018-07-21 05:22:53 GMT 51.130554 -0.278964 15,025 148 357 0
2018-07-21 05:22:50 GMT 51.135681 -0.283789 15,025 148 354 -64
2018-07-21 05:22:47 GMT 51.139618 -0.287575 15,025 148 353 -64
2018-07-21 05:22:44 GMT 51.144291 -0.292206 15,025 149 352 64
2018-07-21 05:22:41 GMT 51.149094 -0.296631 15,025 148 351 128
2018-07-21 05:22:38 GMT 51.152344 -0.299897 15,000 148 349 192
2018-07-21 05:22:35 GMT 51.156441 -0.303879 15,025 149 348 192
2018-07-21 05:22:32 GMT 51.161270 -0.308360 14,975 149 347 64
2018-07-21 05:22:29 GMT 51.164169 -0.311050 14,975 149 346 -192
2018-07-21 05:22:26 GMT 51.168823 -0.315560 15,025 149 346 -832
2018-07-21 05:22:23 GMT 51.174129 -0.320511 15,100 149 345 -896
2018-07-21 05:22:20 GMT 51.177063 -0.323429 15,100 149 345 -896
2018-07-21 05:22:17 GMT 51.181000 -0.327066 15,125 149 344 -896
2018-07-21 05:22:14 GMT 51.184799 -0.330629 15,200 149 344 -896
2018-07-21 05:22:11 GMT 51.189400 -0.335083 15,225 149 344 -960
2018-07-21 05:22:08 GMT 51.193218 -0.338745 15,300 149 343 -960
2018-07-21 05:22:05 GMT 51.197296 -0.342655 15,325 149 343 -896
2018-07-21 05:22:02 GMT 51.201969 -0.346985 15,400 149 344 -960
2018-07-21 05:21:59 GMT 51.205368 -0.350037 15,500 149 345 -1024
2018-07-21 05:21:56 GMT 51.210526 -0.354829 15,500 149 345 -1024
2018-07-21 05:21:53 GMT 51.214630 -0.358810 15,500 149 345 -1088
2018-07-21 05:21:50 GMT 51.217937 -0.361862 15,575 149 347 -1088
2018-07-21 05:21:47 GMT 51.222198 -0.365667 15,625 149 348 -1152
2018-07-21 05:21:44 GMT 51.226826 -0.370102 15,700 149 350 -1152
2018-07-21 05:21:41 GMT 51.230785 -0.373764 15,725 149 352 -1152
2018-07-21 05:21:38 GMT 51.234741 -0.377350 15,850 149 355 -1088
2018-07-21 05:21:35 GMT 51.239548 -0.381998 15,850 149 356 -1088
2018-07-21 05:21:32 GMT 51.243168 -0.385437 16,125 149 360 -960
2018-07-21 05:21:29 GMT 51.248474 -0.390244 15,950 149 361 -960
2018-07-21 05:21:26 GMT 51.250710 -0.392303 16,025 149 364 -1088
2018-07-21 05:21:23 GMT 51.255829 -0.397263 16,075 149 366 -1152
2018-07-21 05:21:20 GMT 51.260834 -0.401892 16,150 149 368 -1408
2018-07-21 05:21:17 GMT 51.266491 -0.407028 16,225 150 370 -1920
2018-07-21 05:21:14 GMT 51.269257 -0.409463 16,350 150 371 -2496
2018-07-21 05:21:11 GMT 51.273880 -0.413917 16,450 150 371 -2688
2018-07-21 05:21:08 GMT 51.279011 -0.418549 16,625 150 371 -2880
2018-07-21 05:21:05 GMT 51.283997 -0.423196 16,750 150 371 -2816
2018-07-21 05:21:02 GMT 51.286423 -0.425423 16,925 149 371 -2688
2018-07-21 05:20:59 GMT 51.291733 -0.430174 16,975 149 371 -2624
2018-07-21 05:20:56 GMT 51.296036 -0.434183 17,200 149 372 -2688
2018-07-21 05:20:53 GMT 51.300983 -0.438766 17,250 149 372 -2688
2018-07-21 05:20:50 GMT 51.304779 -0.442422 17,475 149 372 -2624
2018-07-21 05:20:47 GMT 51.309223 -0.446548 17,500 149 372 -2560
2018-07-21 05:20:44 GMT 51.314716 -0.451508 17,700 149 374 -2368
2018-07-21 05:20:41 GMT 51.320583 -0.457001 17,850 149 374 -2304
2018-07-21 05:20:38 GMT 51.323654 -0.459900 18,050 149 375 -2240
2018-07-21 05:20:34 GMT 51.328629 -0.464544 18,125 149 376 -2176
2018-07-21 05:20:31 GMT 51.332245 -0.467958 18,150 149 377 -2176
2018-07-21 05:20:28 GMT 51.338600 -0.473785 18,325 149 379 -2048
2018-07-21 05:20:25 GMT 51.342545 -0.477608 18,375 149 379 -2048
2018-07-21 05:20:22 GMT 51.346848 -0.481543 18,500 149 381 -1920
2018-07-21 05:20:19 GMT 51.353168 -0.487366 18,550 149 383 -1856
2018-07-21 05:20:16 GMT 51.355408 -0.489411 18,650 149 385 -1792
2018-07-21 05:20:13 GMT 51.361404 -0.495127 18,700 149 386 -1792
2018-07-21 05:20:10 GMT 51.365891 -0.499210 18,825 149 390 -1984
2018-07-21 05:20:07 GMT 51.369835 -0.502853 18,925 149 390 -1984
2018-07-21 05:20:04 GMT 51.375515 -0.508118 19,025 149 391 -2176
2018-07-21 05:20:01 GMT 51.379623 -0.511904 19,075 150 392 -2240
2018-07-21 05:19:58 GMT 51.384266 -0.516205 19,225 149 393 -2176
2018-07-21 05:19:55 GMT 51.388737 -0.520325 19,325 150 395 -1984
2018-07-21 05:19:52 GMT 51.395416 -0.526305 19,475 150 401 -1536
2018-07-21 05:19:49 GMT 51.400234 -0.530777 19,475 150 400 -1536
2018-07-21 05:19:46 GMT 51.403656 -0.534099 19,575 150 403 -1664
2018-07-21 05:19:43 GMT 51.409126 -0.539017 19,650 150 404 -1792
2018-07-21 05:19:40 GMT 51.412766 -0.542339 19,775 150 407 -1920
2018-07-21 05:19:37 GMT 51.419266 -0.548277 19,825 150 408 -1920
2018-07-21 05:19:34 GMT 51.423203 -0.551915 20,025 150 415 -1920
2018-07-21 05:19:31 GMT 51.428864 -0.557098 20,475 150 415 -1920
2018-07-21 05:19:28 GMT 51.433517 -0.561218 20,150 150 415 -1920
2018-07-21 05:19:25 GMT 51.437805 -0.565128 20,200 150 416 -1920
2018-07-21 05:19:22 GMT 51.443802 -0.570621 20,325 150 419 -1984
2018-07-21 05:19:19 GMT 51.448277 -0.574570 20,650 150 427 -2048
2018-07-21 05:19:16 GMT 51.453415 -0.579232 20,550 150 431 -2112
2018-07-21 05:19:13 GMT 51.457726 -0.583344 20,575 150 424 -1984
2018-07-21 05:19:10 GMT 51.465267 -0.590210 20,750 150 428 -2112
2018-07-21 05:19:07 GMT 51.469410 -0.593948 20,825 150 429 -2112
2018-07-21 05:19:04 GMT 51.473507 -0.597763 21,025 150 433 -2112
2018-07-21 05:19:01 GMT 51.478821 -0.602392 21,000 150 433 -2112
2018-07-21 05:18:58 GMT 51.486031 -0.609055 21,200 150 436 -2176
2018-07-21 05:18:55 GMT 51.490677 -0.613379 21,300 150 438 -2240
2018-07-21 05:18:52 GMT 51.495991 -0.618210 21,375 150 440 -2240
2018-07-21 05:18:49 GMT 51.502369 -0.624008 21,500 150 442 -2240
2018-07-21 05:18:46 GMT 51.505768 -0.627289 21,600 150 445 -2240
2018-07-21 05:18:43 GMT 51.510098 -0.631256 21,725 150 447 -2240
2018-07-21 05:18:40 GMT 51.517639 -0.638098 22,025 150 450 -2240
2018-07-21 05:18:37 GMT 51.522766 -0.642700 21,925 150 451 -2176
2018-07-21 05:18:34 GMT 51.528114 -0.647736 22,075 150 454 -2112
2018-07-21 05:18:31 GMT 51.533615 -0.652870 22,225 150 456 -2112
2018-07-21 05:18:28 GMT 51.538403 -0.657120 22,275 149 459 -2112
2018-07-21 05:18:25 GMT 51.542870 -0.661240 22,350 149 461 -2176
2018-07-21 05:18:22 GMT 51.548691 -0.666733 22,500 149 464 -2304
2018-07-21 05:18:19 GMT 51.554352 -0.671873 22,550 149 466 -2368
2018-07-21 05:18:16 GMT 51.560211 -0.677367 22,775 149 472 -3776
2018-07-21 05:18:13 GMT 51.567406 -0.684128 22,875 149 470 -3008
2018-07-21 05:18:10 GMT 51.571175 -0.687561 23,225 149 472 -3712
2018-07-21 05:18:07 GMT 51.577179 -0.693207 23,175 149 472 -3840
2018-07-21 05:18:04 GMT 51.581650 -0.697479 23,400 149 472 -4480
2018-07-21 05:18:01 GMT 51.588181 -0.703496 23,600 150 472 -5056
2018-07-21 05:17:58 GMT 51.594543 -0.709305 24,000 150 469 -5504
2018-07-21 05:17:55 GMT 51.600220 -0.714482 24,175 150 467 -6016
2018-07-21 05:17:52 GMT 51.605206 -0.718918 24,625 150 467 -6208
2018-07-21 05:17:49 GMT 51.611526 -0.724801 24,775 150 466 -6144
2018-07-21 05:17:46 GMT 51.617523 -0.730294 25,275 150 467 -5440
2018-07-21 05:17:43 GMT 51.623219 -0.735397 25,475 150 468 -5120
2018-07-21 05:17:40 GMT 51.628876 -0.740538 25,725 150 469 -5248
2018-07-21 05:17:37 GMT 51.634533 -0.745697 25,850 150 469 -5824
2018-07-21 05:17:34 GMT 51.640182 -0.750708 26,200 150 469 -6336
2018-07-21 05:17:31 GMT 51.644669 -0.754790 26,750 150 467 -6464
2018-07-21 05:17:28 GMT 51.651897 -0.761337 26,875 150 467 -6016
2018-07-21 05:17:25 GMT 51.657349 -0.766519 27,100 150 468 -5120
2018-07-21 05:17:22 GMT 51.663021 -0.771637 27,600 150 467 -5696
2018-07-21 05:17:19 GMT 51.667145 -0.775427 27,825 152 460 -6336
2018-07-21 05:17:16 GMT 51.672798 -0.780411 27,975 150 466 -6080
2018-07-21 05:17:13 GMT 51.679688 -0.786591 28,200 151 466 -6208
2018-07-21 05:17:10 GMT 51.686050 -0.792278 28,600 151 464 -6272
2018-07-21 05:17:07 GMT 51.691002 -0.796509 29,075 152 456 -6208
2018-07-21 05:17:04 GMT 51.695801 -0.800814 29,400 151 462 -6336
2018-07-21 05:17:01 GMT 51.702171 -0.806122 29,450 152 460 -6400
2018-07-21 05:16:58 GMT 51.707840 -0.810984 30,300 152 456 -6208
2018-07-21 05:16:55 GMT 51.713486 -0.815735 30,075 152 456 -6208
2018-07-21 05:16:52 GMT 51.719490 -0.820770 30,475 152 453 -5888
2018-07-21 05:16:49 GMT 51.723961 -0.824356 30,650 153 453 -5696
2018-07-21 05:16:46 GMT 51.729446 -0.828948 31,075 153 452 -5056
2018-07-21 05:16:43 GMT 51.737000 -0.834812 31,250 153 452 -4288
2018-07-21 05:16:40 GMT 51.741135 -0.838089 31,700 154 453 -2496
2018-07-21 05:16:37 GMT 51.747482 -0.843201 31,575 154 452 -2880
2018-07-21 05:16:34 GMT 51.752792 -0.847209 31,700 154 453 -2304
2018-07-21 05:16:31 GMT 51.759521 -0.852480 31,825 154 454 -2304
2018-07-21 05:16:28 GMT 51.762272 -0.854568 32,000 154 455 -2432
2018-07-21 05:16:25 GMT 51.769115 -0.859680 32,225 154 456 -2432
2018-07-21 05:16:22 GMT 51.776321 -0.865173 32,200 155 457 -2304
2018-07-21 05:16:19 GMT 51.779774 -0.867767 32,325 156 458 -1792
2018-07-21 05:16:16 GMT 51.788155 -0.873947 33,000 156 458 -2560
2018-07-21 05:16:13 GMT 51.793304 -0.877719 32,525 155 458 -2624
2018-07-21 05:16:10 GMT 51.797974 -0.880985 32,725 156 458 -2560
2018-07-21 05:16:07 GMT 51.803612 -0.885086 32,775 156 458 -2304
2018-07-21 05:16:04 GMT 51.809799 -0.889587 32,925 156 458 -1472
2018-07-21 05:16:01 GMT 51.814457 -0.892868 32,975 156 458 -1088
2018-07-21 05:15:58 GMT 51.821487 -0.897827 32,975 156 459 -320
2018-07-21 05:15:55 GMT 51.828186 -0.902438 33,000 156 459 -192
2018-07-21 05:15:52 GMT 51.833172 -0.906067 33,000 156 460 -64
2018-07-21 05:15:49 GMT 51.838989 -0.910158 33,000 156 460 -64
2018-07-21 05:15:46 GMT 51.845692 -0.914841 33,000 156 460 -128
2018-07-21 05:15:43 GMT 51.850662 -0.918249 33,000 156 460 -128
2018-07-21 05:15:40 GMT 51.857330 -0.922852 33,025 156 461 0
2018-07-21 05:15:37 GMT 51.862171 -0.926132 33,025 156 461 -64
2018-07-21 05:15:34 GMT 51.868698 -0.930794 33,000 157 461 64
2018-07-21 05:15:31 GMT 51.875393 -0.935211 33,000 157 461 64
2018-07-21 05:15:28 GMT 51.880188 -0.938492 33,000 157 462 64
2018-07-21 05:15:25 GMT 51.885681 -0.942307 33,000 157 462 0
2018-07-21 05:15:22 GMT 51.892365 -0.946754 33,000 157 462 0
2018-07-21 05:15:19 GMT 51.899414 -0.951691 33,000 157 461 0
2018-07-21 05:15:16 GMT 51.902481 -0.953751 33,000 157 461 0
2018-07-21 05:15:13 GMT 51.908844 -0.958099 33,000 157 461 0
2018-07-21 05:15:10 GMT 51.915894 -0.962906 33,000 157 461 -64
2018-07-21 05:15:07 GMT 51.921715 -0.967032 33,000 157 461 -64
2018-07-21 05:15:04 GMT 51.929947 -0.972672 33,000 157 461 0
2018-07-21 05:15:01 GMT 51.932373 -0.974197 33,000 157 460 64
2018-07-21 05:14:58 GMT 51.939423 -0.979004 33,000 157 461 -64
2018-07-21 05:14:55 GMT 51.943359 -0.981598 33,000 157 461 -64
2018-07-21 05:14:52 GMT 51.950409 -0.986404 33,000 157 460 -64
2018-07-21 05:14:49 GMT 51.957413 -0.991211 33,000 157 461 0
2018-07-21 05:14:46 GMT 51.963425 -0.995126 33,000 157 460 -64
2018-07-21 05:14:43 GMT 51.967381 -0.997716 33,000 157 460 0
2018-07-21 05:14:40 GMT 51.975109 -1.003052 33,000 157 460 64
2018-07-21 05:14:37 GMT 51.981125 -1.006851 33,000 157 460 64
2018-07-21 05:14:34 GMT 51.986980 -1.010742 33,000 157 460 0
2018-07-21 05:14:31 GMT 51.992111 -1.014175 33,000 157 460 0
2018-07-21 05:14:28 GMT 51.998291 -1.018524 33,000 157 459 0
2018-07-21 05:14:25 GMT 52.002228 -1.021271 33,000 157 459 0
2018-07-21 05:14:22 GMT 52.009277 -1.026077 33,000 157 459 0
2018-07-21 05:14:19 GMT 52.015457 -1.030197 33,000 157 459 64
2018-07-21 05:14:16 GMT 52.020950 -1.033936 33,000 157 459 64
2018-07-21 05:14:13 GMT 52.028503 -1.039071 33,000 157 460 64
2018-07-21 05:14:10 GMT 52.033112 -1.042210 32,975 157 460 192
2018-07-21 05:14:07 GMT 52.039810 -1.046829 32,975 157 461 -128
2018-07-21 05:14:04 GMT 52.045681 -1.050764 33,100 157 460 -960
2018-07-21 05:14:01 GMT 52.050289 -1.054060 32,975 157 461 -128
2018-07-21 05:13:58 GMT 52.056976 -1.058502 33,025 157 461 -448
2018-07-21 05:13:55 GMT 52.064026 -1.063309 33,025 157 460 -896
2018-07-21 05:13:52 GMT 52.067654 -1.065674 33,075 157 460 -960
2018-07-21 05:13:49 GMT 52.074684 -1.070539 33,100 157 460 -960
2018-07-21 05:13:46 GMT 52.080177 -1.074306 33,175 157 460 -960
2018-07-21 05:13:43 GMT 52.087208 -1.079093 33,300 157 462 -1024
2018-07-21 05:13:40 GMT 52.091164 -1.081682 33,325 157 460 -1024
2018-07-21 05:13:37 GMT 52.098724 -1.086807 33,300 157 460 -1024
2018-07-21 05:13:34 GMT 52.102478 -1.089401 33,375 157 461 -1024
2018-07-21 05:13:31 GMT 52.109177 -1.094003 33,400 157 462 -1024
2018-07-21 05:13:28 GMT 52.115891 -1.098480 33,475 157 463 -960
2018-07-21 05:13:25 GMT 52.121887 -1.102635 33,500 157 463 -960
2018-07-21 05:13:22 GMT 52.127701 -1.106567 33,575 157 464 -960
2018-07-21 05:13:19 GMT 52.133194 -1.110306 33,625 157 464 -896
2018-07-21 05:13:16 GMT 52.139206 -1.114485 33,675 157 464 -960
2018-07-21 05:13:13 GMT 52.144699 -1.118094 33,700 157 465 -960
2018-07-21 05:13:10 GMT 52.148842 -1.120841 33,725 157 465 -960
2018-07-21 05:13:07 GMT 52.155869 -1.125628 33,775 157 466 -960
2018-07-21 05:13:04 GMT 52.163925 -1.130729 33,850 157 467 -1024
2018-07-21 05:13:01 GMT 52.168766 -1.134024 33,875 157 467 -1024
2018-07-21 05:12:58 GMT 52.174259 -1.137791 34,050 157 471 -960
2018-07-21 05:12:55 GMT 52.182312 -1.142970 34,000 157 471 -960
2018-07-21 05:12:52 GMT 52.187992 -1.146737 34,050 158 472 -896
2018-07-21 05:12:49 GMT 52.193985 -1.150665 34,100 158 472 -960
2018-07-21 05:12:46 GMT 52.199303 -1.154114 34,150 158 474 -1024
2018-07-21 05:12:43 GMT 52.206703 -1.158901 34,175 158 474 -1024
2018-07-21 05:12:40 GMT 52.210617 -1.161490 34,250 158 477 -960
2018-07-21 05:12:37 GMT 52.216827 -1.165466 34,275 158 476 -960
2018-07-21 05:12:34 GMT 52.224197 -1.170273 34,350 158 477 -960
2018-07-21 05:12:31 GMT 52.230354 -1.174203 34,425 158 477 -960
2018-07-21 05:12:28 GMT 52.236034 -1.177813 34,475 158 478 -960
2018-07-21 05:12:25 GMT 52.241852 -1.181423 34,475 158 478 -960
2018-07-21 05:12:22 GMT 52.250092 -1.186759 34,550 158 478 -896
2018-07-21 05:12:19 GMT 52.253723 -1.188965 34,575 158 477 -896
2018-07-21 05:12:16 GMT 52.259914 -1.192880 34,625 158 477 -896
2018-07-21 05:12:13 GMT 52.266083 -1.196671 34,675 159 479 -896
2018-07-21 05:12:10 GMT 52.272766 -1.200943 34,725 159 477 -960
2018-07-21 05:12:07 GMT 52.280136 -1.205597 34,750 159 478 -960
2018-07-21 05:12:03 GMT 52.286358 -1.209359 34,825 159 478 -896
2018-07-21 05:12:00 GMT 52.293365 -1.213837 34,875 159 479 -960
2018-07-21 05:11:57 GMT 52.299530 -1.217599 34,925 158 479 -960
2018-07-21 05:11:54 GMT 52.308151 -1.223145 34,975 158 479 -960
2018-07-21 05:11:50 GMT 52.315170 -1.227408 35,050 159 480 -1024
2018-07-21 05:11:47 GMT 52.320648 -1.230850 35,100 159 481 -1024
2018-07-21 05:11:44 GMT 52.326859 -1.234785 35,125 159 482 -960
2018-07-21 05:11:41 GMT 52.333008 -1.238556 35,200 159 483 -960
2018-07-21 05:11:38 GMT 52.339378 -1.242475 35,250 159 484 -960
2018-07-21 05:11:35 GMT 52.345200 -1.246085 35,325 159 484 -960
2018-07-21 05:11:32 GMT 52.351410 -1.249924 35,425 159 483 -960
2018-07-21 05:11:29 GMT 52.357407 -1.253510 35,375 159 484 -960
2018-07-21 05:11:26 GMT 52.364090 -1.257629 35,450 159 483 -1024
2018-07-21 05:11:23 GMT 52.372013 -1.262408 35,475 159 483 -896
2018-07-21 05:11:20 GMT 52.377319 -1.265869 35,650 159 484 -960
2018-07-21 05:11:17 GMT 52.382446 -1.268921 35,875 159 483 -1088
2018-07-21 05:11:14 GMT 52.388634 -1.272688 35,650 159 484 -960
2018-07-21 05:11:11 GMT 52.395859 -1.277161 35,675 159 484 -960
2018-07-21 05:11:08 GMT 52.403229 -1.281815 35,750 159 483 -1088
2018-07-21 05:11:05 GMT 52.409912 -1.285934 35,775 159 483 -1088
2018-07-21 05:11:02 GMT 52.414902 -1.289062 36,025 159 483 -1024
2018-07-21 05:10:59 GMT 52.421585 -1.293182 35,900 159 482 -1024
2018-07-21 05:10:56 GMT 52.428314 -1.297455 35,950 159 483 -1024
2018-07-21 05:10:53 GMT 52.432949 -1.300389 36,025 158 483 -448
2018-07-21 05:10:50 GMT 52.440304 -1.305019 36,050 158 482 -960
2018-07-21 05:10:47 GMT 52.446671 -1.308975 36,150 158 482 -832
2018-07-21 05:10:44 GMT 52.451988 -1.312395 36,200 158 483 -512
2018-07-21 05:10:40 GMT 52.459530 -1.317025 36,150 158 483 -512
2018-07-21 05:10:37 GMT 52.466049 -1.321341 36,200 158 483 -512
2018-07-21 05:10:34 GMT 52.471027 -1.324402 36,200 158 483 -512
2018-07-21 05:10:31 GMT 52.479126 -1.329575 36,225 158 483 -576
2018-07-21 05:10:28 GMT 52.485275 -1.333505 35,275 159 489 960
2018-07-21 05:10:25 GMT 52.492863 -1.338292 36,300 159 489 960
2018-07-21 05:10:22 GMT 52.496960 -1.340881 36,275 158 485 0
2018-07-21 05:10:19 GMT 52.503983 -1.345367 36,275 158 486 64
2018-07-21 05:10:16 GMT 52.509480 -1.348807 36,275 159 489 512
2018-07-21 05:10:13 GMT 52.516186 -1.353045 36,275 159 488 448
2018-07-21 05:10:10 GMT 52.523392 -1.357498 36,225 159 489 1152
2018-07-21 05:10:07 GMT 52.529388 -1.361313 36,175 159 489 1664
2018-07-21 05:10:04 GMT 52.535599 -1.365287 36,050 159 489 1984
2018-07-21 05:10:01 GMT 52.540718 -1.368347 35,900 159 490 1984
2018-07-21 05:09:58 GMT 52.549145 -1.373683 35,825 159 491 1920
2018-07-21 05:09:55 GMT 52.556034 -1.377764 35,750 159 491 1856
2018-07-21 05:09:52 GMT 52.560314 -1.380511 35,600 159 491 1792
2018-07-21 05:09:49 GMT 52.568390 -1.385498 35,575 159 492 1792
2018-07-21 05:09:46 GMT 52.574203 -1.389084 35,450 159 493 1728
2018-07-21 05:09:43 GMT 52.579029 -1.392046 35,425 159 493 1664
2018-07-21 05:09:40 GMT 52.585735 -1.396284 35,325 159 492 1536
2018-07-21 05:09:37 GMT 52.593414 -1.401149 35,250 159 492 1472
2018-07-21 05:09:34 GMT 52.600662 -1.405563 35,175 158 491 1408
2018-07-21 05:09:31 GMT 52.605286 -1.408683 35,125 158 491 1472
2018-07-21 05:09:28 GMT 52.612827 -1.413470 35,000 158 491 1536
2018-07-21 05:09:25 GMT 52.617992 -1.416609 34,975 158 491 1600
2018-07-21 05:09:22 GMT 52.623459 -1.420212 34,850 158 491 1536
2018-07-21 05:09:18 GMT 52.636520 -1.428615 34,750 158 490 1472
2018-07-21 05:09:15 GMT 52.639969 -1.430655 34,700 158 490 1472
2018-07-21 05:09:12 GMT 52.646671 -1.434971 34,400 158 490 1536
2018-07-21 05:09:08 GMT 52.652985 -1.439056 34,525 158 489 1536
2018-07-21 05:09:05 GMT 52.659714 -1.443329 34,475 158 489 1536
2018-07-21 05:09:02 GMT 52.666397 -1.447830 34,375 158 489 1536
2018-07-21 05:08:59 GMT 52.671902 -1.451451 34,250 158 488 1472
2018-07-21 05:08:56 GMT 52.679764 -1.456604 34,050 158 488 1344
2018-07-21 05:08:53 GMT 52.686146 -1.460711 34,175 158 487 1344
2018-07-21 05:08:50 GMT 52.691620 -1.464310 34,000 158 486 1472
2018-07-21 05:08:47 GMT 52.698669 -1.468951 34,025 158 487 1408
2018-07-21 05:08:44 GMT 52.704849 -1.473083 33,925 158 486 1472
2018-07-21 05:08:41 GMT 52.710663 -1.476974 33,875 157 485 1536
2018-07-21 05:08:38 GMT 52.717709 -1.481663 33,775 157 484 1600
2018-07-21 05:08:34 GMT 52.725632 -1.486969 33,650 157 484 1536
2018-07-21 05:08:31 GMT 52.731445 -1.490936 33,625 157 482 1728
2018-07-21 05:08:28 GMT 52.737633 -1.495004 33,500 157 482 1600
2018-07-21 05:08:25 GMT 52.742615 -1.498457 33,425 157 483 1600
2018-07-21 05:08:22 GMT 52.750854 -1.504107 33,275 157 482 1728
2018-07-21 05:08:19 GMT 52.755295 -1.507187 33,275 157 481 1792
2018-07-21 05:08:16 GMT 52.761841 -1.511688 33,175 157 482 1920
2018-07-21 05:08:13 GMT 52.770081 -1.517487 33,075 156 482 1920
2018-07-21 05:08:10 GMT 52.774200 -1.520462 32,900 156 482 1920
2018-07-21 05:08:07 GMT 52.779877 -1.524353 32,925 156 482 1984
2018-07-21 05:08:03 GMT 52.787582 -1.530082 32,150 155 483 2880
2018-07-21 05:08:00 GMT 52.795822 -1.535889 32,625 156 481 2112
2018-07-21 05:07:57 GMT 52.799423 -1.538467 32,475 156 482 2112
2018-07-21 05:07:54 GMT 52.806297 -1.543579 32,375 155 482 2560
2018-07-21 05:07:51 GMT 52.812119 -1.547738 32,300 155 482 2752
2018-07-21 05:07:48 GMT 52.819016 -1.552887 32,100 155 483 2816
2018-07-21 05:07:45 GMT 52.825516 -1.557846 32,025 155 484 2624
2018-07-21 05:07:42 GMT 52.830322 -1.561432 31,850 155 485 2368
2018-07-21 05:07:39 GMT 52.836510 -1.566101 31,800 155 485 2432
2018-07-21 05:07:36 GMT 52.843369 -1.571426 31,650 155 486 2368
2018-07-21 05:07:33 GMT 52.850739 -1.576920 31,525 155 486 2112
2018-07-21 05:07:30 GMT 52.856064 -1.581011 31,350 155 486 1792
2018-07-21 05:07:27 GMT 52.861404 -1.585159 31,350 155 486 1920
2018-07-21 05:07:24 GMT 52.868259 -1.590271 31,225 155 486 1792
2018-07-21 05:07:21 GMT 52.875137 -1.595612 31,150 155 486 1792
2018-07-21 05:07:18 GMT 52.879257 -1.598892 31,050 155 484 1536
2018-07-21 05:07:15 GMT 52.887314 -1.605072 31,000 155 484 1408
2018-07-21 05:07:12 GMT 52.893490 -1.609732 30,900 155 484 1280
2018-07-21 05:07:09 GMT 52.898285 -1.613499 30,875 155 482 1216
2018-07-21 05:07:06 GMT 52.903610 -1.617432 30,650 155 480 1216
2018-07-21 05:07:03 GMT 52.910343 -1.622759 30,750 155 479 1216
2018-07-21 05:07:00 GMT 52.917206 -1.628036 30,675 155 478 1216
2018-07-21 05:06:57 GMT 52.922012 -1.631699 30,625 155 477 1152
2018-07-21 05:06:54 GMT 52.929199 -1.637192 30,550 155 476 1152
2018-07-21 05:06:51 GMT 52.933666 -1.640573 30,500 155 475 1152
2018-07-21 05:06:48 GMT 52.942417 -1.647321 30,425 155 472 1216
2018-07-21 05:06:45 GMT 52.945862 -1.650009 30,375 155 472 1216
2018-07-21 05:06:42 GMT 52.951866 -1.654698 30,300 155 470 1216
2018-07-21 05:06:39 GMT 52.957718 -1.659164 30,250 155 469 1152
2018-07-21 05:06:36 GMT 52.964390 -1.664272 30,175 155 467 1216
2018-07-21 05:06:33 GMT 52.969185 -1.667882 30,150 154 465 1344
2018-07-21 05:06:30 GMT 52.976913 -1.673924 29,950 154 463 1536
2018-07-21 05:06:27 GMT 52.981567 -1.677534 29,975 154 463 1600
2018-07-21 05:06:24 GMT 52.986694 -1.681442 29,900 155 463 1408
2018-07-21 05:06:21 GMT 52.993252 -1.686401 29,875 155 462 1152
2018-07-21 05:06:18 GMT 53.000610 -1.692123 29,750 154 459 1280
2018-07-21 05:06:15 GMT 53.004749 -1.695504 29,750 154 459 1408
2018-07-21 05:06:12 GMT 53.011276 -1.700516 29,650 154 456 1408
2018-07-21 05:06:09 GMT 53.017086 -1.705000 29,600 154 456 1408
2018-07-21 05:06:06 GMT 53.023453 -1.709976 29,500 154 453 1536
2018-07-21 05:06:03 GMT 53.026863 -1.712690 29,450 154 453 1536
2018-07-21 05:06:00 GMT 53.033054 -1.717320 29,350 154 451 1536
2018-07-21 05:05:57 GMT 53.039757 -1.722656 29,300 154 451 1536
2018-07-21 05:05:54 GMT 53.044415 -1.726109 29,200 155 450 1536
2018-07-21 05:05:51 GMT 53.052654 -1.732622 29,125 154 449 1536
2018-07-21 05:05:47 GMT 53.057774 -1.736546 29,075 154 447 1408
2018-07-21 05:05:44 GMT 53.064972 -1.742020 28,975 154 444 1344
2018-07-21 05:05:41 GMT 53.068588 -1.744995 28,925 154 444 1344
2018-07-21 05:05:38 GMT 53.074951 -1.749965 28,825 154 441 1344
2018-07-21 05:05:35 GMT 53.079418 -1.753339 28,775 154 437 1408
2018-07-21 05:05:32 GMT 53.086777 -1.759225 28,700 154 439 1408
2018-07-21 05:05:29 GMT 53.092987 -1.764221 28,625 154 437 1408
2018-07-21 05:05:26 GMT 53.098461 -1.768637 28,550 154 436 1472
2018-07-21 05:05:23 GMT 53.102741 -1.772111 28,500 154 434 1472
2018-07-21 05:05:19 GMT 53.110291 -1.778294 28,400 153 432 1600
2018-07-21 05:05:16 GMT 53.114594 -1.781669 28,250 153 431 1728
2018-07-21 05:05:13 GMT 53.120270 -1.786534 28,250 153 429 1856
2018-07-21 05:05:10 GMT 53.124901 -1.790287 28,125 153 428 1920
2018-07-21 05:05:07 GMT 53.131577 -1.795951 28,025 153 427 1984
2018-07-21 05:05:04 GMT 53.136913 -1.800385 27,850 152 427 2176
2018-07-21 05:05:01 GMT 53.141708 -1.804666 27,825 152 426 2240
2018-07-21 05:04:58 GMT 53.145676 -1.807957 27,675 152 425 2240
2018-07-21 05:04:55 GMT 53.152882 -1.814279 27,600 152 425 2176
2018-07-21 05:04:52 GMT 53.158218 -1.818787 27,450 151 423 2304
2018-07-21 05:04:49 GMT 53.161652 -1.821847 27,400 151 423 2304
2018-07-21 05:04:46 GMT 53.167145 -1.826869 27,250 151 423 2368
2018-07-21 05:04:43 GMT 53.172638 -1.831813 27,175 151 422 2368
2018-07-21 05:04:40 GMT 53.177784 -1.836494 27,025 151 422 2368
2018-07-21 05:04:37 GMT 53.182251 -1.840445 26,950 151 422 2368
2018-07-21 05:04:34 GMT 53.188770 -1.846269 26,750 154 422 2304
2018-07-21 05:04:31 GMT 53.192551 -1.849470 26,375 156 423 2176
2018-07-21 05:04:28 GMT 53.198730 -1.854963 26,525 159 423 2112
2018-07-21 05:04:25 GMT 53.204041 -1.859113 26,450 156 423 2176
2018-07-21 05:04:22 GMT 53.209534 -1.862889 26,275 160 423 2048
2018-07-21 05:04:19 GMT 53.216034 -1.866656 26,225 163 424 1856
2018-07-21 05:04:16 GMT 53.219833 -1.868382 26,050 169 423 1792
2018-07-21 05:04:13 GMT 53.225685 -1.870584 26,075 168 424 1664
2018-07-21 05:04:09 GMT 53.236816 -1.873718 25,900 171 422 1920
2018-07-21 05:04:06 GMT 53.238724 -1.874219 25,775 170 421 1984
2018-07-21 05:04:03 GMT 53.245564 -1.876077 25,750 170 420 1984
2018-07-21 05:04:00 GMT 53.250221 -1.877289 24,500 171 416 1728
2018-07-21 05:03:57 GMT 53.255859 -1.878898 25,500 171 416 1728
2018-07-21 05:03:53 GMT 53.265488 -1.881247 25,425 170 415 1728
2018-07-21 05:03:50 GMT 53.270798 -1.882620 25,350 170 414 1920
2018-07-21 05:03:47 GMT 53.275265 -1.883832 25,275 170 413 2048
2018-07-21 05:03:44 GMT 53.280621 -1.885367 25,125 170 411 1920
2018-07-21 05:03:41 GMT 53.286072 -1.886745 25,050 170 409 1856
2018-07-21 05:03:38 GMT 53.292442 -1.888437 24,950 171 407 1920
2018-07-21 05:03:35 GMT 53.297241 -1.889648 24,825 171 404 1984
2018-07-21 05:03:32 GMT 53.304455 -1.891587 24,700 171 405 1984
2018-07-21 05:03:29 GMT 53.308411 -1.892630 24,675 171 404 1984
2018-07-21 05:03:26 GMT 53.315781 -1.894514 24,550 171 402 1984
2018-07-21 05:03:23 GMT 53.320267 -1.895691 24,500 171 401 1984
2018-07-21 05:03:20 GMT 53.326427 -1.897242 24,250 170 399 2048
2018-07-21 05:03:17 GMT 53.330708 -1.898454 24,300 171 395 2368
2018-07-21 05:03:14 GMT 53.336884 -1.900007 24,150 170 396 2240
2018-07-21 05:03:11 GMT 53.342056 -1.901498 24,075 170 396 2304
2018-07-21 05:03:08 GMT 53.345673 -1.902361 23,925 172 395 2368
2018-07-21 05:03:05 GMT 53.352543 -1.903785 23,850 175 394 2176
2018-07-21 05:03:02 GMT 53.359406 -1.904402 23,675 181 393 2048
2018-07-21 05:02:59 GMT 53.361946 -1.904432 23,625 182 393 2048
2018-07-21 05:02:56 GMT 53.368511 -1.903785 23,475 189 391 2176
2018-07-21 05:02:53 GMT 53.375027 -1.902412 23,400 190 391 2176
2018-07-21 05:02:50 GMT 53.379124 -1.901039 23,175 207 384 2112
2018-07-21 05:02:47 GMT 53.385132 -1.898438 23,200 197 388 2112
2018-07-21 05:02:43 GMT 53.390808 -1.895142 23,050 202 386 2048
2018-07-21 05:02:40 GMT 53.395798 -1.891767 22,725 209 383 2176
2018-07-21 05:02:37 GMT 53.400925 -1.887608 22,850 209 383 2176
2018-07-21 05:02:34 GMT 53.406078 -1.882620 22,700 216 381 2240
2018-07-21 05:02:31 GMT 53.411385 -1.876643 22,600 217 381 2240
2018-07-21 05:02:28 GMT 53.414131 -1.872846 22,475 224 379 2176
2018-07-21 05:02:25 GMT 53.418598 -1.865656 22,400 227 378 2112
2018-07-21 05:02:22 GMT 53.422211 -1.859122 22,250 231 376 2304
2018-07-21 05:02:19 GMT 53.424774 -1.853786 22,150 234 374 2496
2018-07-21 05:02:16 GMT 53.427704 -1.847273 21,950 235 373 2560
2018-07-21 05:02:13 GMT 53.430611 -1.840210 21,900 236 372 2624
2018-07-21 05:02:10 GMT 53.433884 -1.831970 21,725 238 371 2752
2018-07-21 05:02:07 GMT 53.436989 -1.823730 21,650 240 370 2752
2018-07-21 05:02:04 GMT 53.439037 -1.817914 21,450 242 369 2880
2018-07-21 05:02:01 GMT 53.442108 -1.808786 21,350 243 369 2816
2018-07-21 05:01:58 GMT 53.444183 -1.802307 21,000 247 367 2752
2018-07-21 05:01:55 GMT 53.446060 -1.795088 21,100 246 367 2752
2018-07-21 05:01:52 GMT 53.447983 -1.787711 20,900 247 366 2752
2018-07-21 05:01:49 GMT 53.450180 -1.779471 20,825 247 365 2752
2018-07-21 05:01:46 GMT 53.453613 -1.765895 20,625 247 364 2880
2018-07-21 05:01:43 GMT 53.454666 -1.761815 20,525 247 364 3072
2018-07-21 05:01:40 GMT 53.456223 -1.755615 20,275 247 363 3200
2018-07-21 05:01:37 GMT 53.458099 -1.748396 20,200 247 362 3136
2018-07-21 05:01:34 GMT 53.460480 -1.739136 19,975 247 362 3008
2018-07-21 05:01:31 GMT 53.462219 -1.732447 19,900 247 361 3008
2018-07-21 05:01:28 GMT 53.463943 -1.726227 19,675 246 361 2944
2018-07-21 05:01:25 GMT 53.466316 -1.717179 19,500 246 361 3008
2018-07-21 05:01:22 GMT 53.468399 -1.709394 19,425 246 360 2944
2018-07-21 05:01:19 GMT 53.470276 -1.702410 19,250 247 359 2944
2018-07-21 05:01:16 GMT 53.472153 -1.695190 19,100 247 358 2880
2018-07-21 05:01:13 GMT 53.474579 -1.686087 19,025 247 357 2816
2018-07-21 05:01:10 GMT 53.476456 -1.679025 18,850 247 356 2944
2018-07-21 05:01:07 GMT 53.478374 -1.671457 18,725 247 355 3072
2018-07-21 05:01:04 GMT 53.480072 -1.664978 18,525 247 353 3264
2018-07-21 05:01:01 GMT 53.482143 -1.657401 18,400 247 353 3456
2018-07-21 05:00:58 GMT 53.484879 -1.646929 18,200 247 353 3456
2018-07-21 05:00:55 GMT 53.486069 -1.641828 18,000 247 353 3328
2018-07-21 05:00:52 GMT 53.488148 -1.634378 17,850 247 352 3200
2018-07-21 05:00:49 GMT 53.489872 -1.627350 17,750 247 349 3328
2018-07-21 05:00:46 GMT 53.492245 -1.618302 17,500 247 351 3264
2018-07-21 05:00:43 GMT 53.493988 -1.611930 17,425 247 351 3328
2018-07-21 05:00:39 GMT 53.496529 -1.601419 17,200 247 349 3328
2018-07-21 05:00:36 GMT 53.498947 -1.592533 16,950 247 348 3392
2018-07-21 05:00:33 GMT 53.500305 -1.587054 16,775 247 348 3392
2018-07-21 05:00:30 GMT 53.502209 -1.579689 16,650 247 347 3456
2018-07-21 05:00:27 GMT 53.504105 -1.572065 16,375 248 346 3328
2018-07-21 05:00:24 GMT 53.505978 -1.564744 16,325 248 346 3328
2018-07-21 05:00:21 GMT 53.508545 -1.554408 16,100 248 345 3328
2018-07-21 05:00:18 GMT 53.509422 -1.550849 16,000 248 345 3264
2018-07-21 05:00:15 GMT 53.511845 -1.540994 15,775 248 343 3264
2018-07-21 05:00:12 GMT 53.513008 -1.536228 15,725 248 343 3264
2018-07-21 05:00:09 GMT 53.515244 -1.527261 15,350 247 341 3200
2018-07-21 05:00:06 GMT 53.517151 -1.520637 15,250 247 339 3328
2018-07-21 05:00:03 GMT 53.519012 -1.512882 15,125 247 339 3328
2018-07-21 05:00:00 GMT 53.520737 -1.506016 15,025 247 339 3328
2018-07-21 04:59:57 GMT 53.522457 -1.499311 14,775 247 336 3264
2018-07-21 04:59:54 GMT 53.525208 -1.489197 14,675 247 335 3264
2018-07-21 04:59:51 GMT 53.526398 -1.484410 14,500 247 334 3264
2018-07-21 04:59:48 GMT 53.527950 -1.478227 13,850 247 333 3392
2018-07-21 04:59:45 GMT 53.530518 -1.468244 14,125 247 333 3392
2018-07-21 04:59:42 GMT 53.532074 -1.462594 14,050 247 328 2880
2018-07-21 04:59:38 GMT 53.534328 -1.453669 13,850 248 328 2880
2018-07-21 04:59:35 GMT 53.536053 -1.446964 13,600 247 328 2880
2018-07-21 04:59:32 GMT 53.537727 -1.440421 13,500 248 328 2880
2018-07-21 04:59:28 GMT 53.540333 -1.430161 13,375 248 325 3008
2018-07-21 04:59:25 GMT 53.542191 -1.422259 13,150 248 323 3328
2018-07-21 04:59:22 GMT 53.543732 -1.416267 13,000 248 323 3456
2018-07-21 04:59:19 GMT 53.545315 -1.409885 12,800 248 321 3520
2018-07-21 04:59:16 GMT 53.547035 -1.403342 12,725 248 322 3520
2018-07-21 04:59:13 GMT 53.549423 -1.393773 12,425 248 321 2816
2018-07-21 04:59:10 GMT 53.551132 -1.386862 12,350 248 319 2176
2018-07-21 04:59:07 GMT 53.552158 -1.382258 12,300 248 317 1408
2018-07-21 04:59:04 GMT 53.554066 -1.375068 12,175 249 312 1472
2018-07-21 04:59:01 GMT 53.555279 -1.369575 12,125 249 308 1664
2018-07-21 04:58:58 GMT 53.557323 -1.360770 12,000 250 304 1920
2018-07-21 04:58:55 GMT 53.558853 -1.354065 11,950 252 301 2304
2018-07-21 04:58:52 GMT 53.559723 -1.349592 11,750 257 297 3008
2018-07-21 04:58:49 GMT 53.560867 -1.341117 11,675 259 296 3200
2018-07-21 04:58:46 GMT 53.561607 -1.334839 11,475 265 295 3136
2018-07-21 04:58:43 GMT 53.561966 -1.328012 11,375 269 294 3136
2018-07-21 04:58:40 GMT 53.561935 -1.322479 11,125 274 292 3200
2018-07-21 04:58:37 GMT 53.561607 -1.313916 10,925 277 291 3200
2018-07-21 04:58:34 GMT 53.561096 -1.308079 10,825 284 290 3136
2018-07-21 04:58:31 GMT 53.559887 -1.300668 10,725 287 289 3072
2018-07-21 04:58:28 GMT 53.558853 -1.295053 10,525 301 286 3328
2018-07-21 04:58:25 GMT 53.557140 -1.288147 10,375 298 287 3264
2018-07-21 04:58:22 GMT 53.555092 -1.281846 10,050 304 286 3392
2018-07-21 04:58:19 GMT 53.553043 -1.276676 10,075 306 286 3456
2018-07-21 04:58:16 GMT 53.551300 -1.273080 9,975 316 286 3136
2018-07-21 04:58:13 GMT 53.548370 -1.267587 9,400 316 286 3136
2018-07-21 04:58:10 GMT 53.545128 -1.262458 9,600 322 285 3072
2018-07-21 04:58:07 GMT 53.541733 -1.258092 9,350 325 284 3200
2018-07-21 04:58:04 GMT 53.537914 -1.253492 9,250 325 284 3200
2018-07-21 04:58:01 GMT 53.534637 -1.249695 9,050 325 283 3200
2018-07-21 04:57:58 GMT 53.531891 -1.246320 8,900 325 282 3200
2018-07-21 04:57:55 GMT 53.528870 -1.242789 8,775 325 282 3264
2018-07-21 04:57:52 GMT 53.525764 -1.238951 8,550 325 281 3328
2018-07-21 04:57:49 GMT 53.522968 -1.235800 8,500 325 281 3392
2018-07-21 04:57:46 GMT 53.519573 -1.231680 8,200 325 280 3712
2018-07-21 04:57:43 GMT 53.515244 -1.226753 8,075 325 281 3776
2018-07-21 04:57:39 GMT 53.512161 -1.222935 7,875 325 281 3712
2018-07-21 04:57:36 GMT 53.508728 -1.218855 7,575 324 281 3392
2018-07-21 04:57:33 GMT 53.506485 -1.216108 6,825 324 281 3712
2018-07-21 04:57:30 GMT 53.502228 -1.210772 7,250 323 281 4032
2018-07-21 04:57:27 GMT 53.499134 -1.206800 7,125 323 282 3968
2018-07-21 04:57:24 GMT 53.496529 -1.203407 6,875 324 285 3200
2018-07-21 04:57:21 GMT 53.493301 -1.199393 6,725 327 286 2304
2018-07-21 04:57:18 GMT 53.489685 -1.195626 6,650 334 286 1024
2018-07-21 04:57:15 GMT 53.486614 -1.192905 6,650 336 285 832
2018-07-21 04:57:12 GMT 53.481770 -1.189674 6,600 343 283 640
2018-07-21 04:57:09 GMT 53.478790 -1.188407 6,575 347 282 448
2018-07-21 04:57:06 GMT 53.475067 -1.186927 6,550 350 278 192
2018-07-21 04:57:03 GMT 53.471329 -1.185660 6,550 349 277 192
2018-07-21 04:56:59 GMT 53.465153 -1.183615 6,525 348 273 704
2018-07-21 04:56:56 GMT 53.462543 -1.182807 6,475 348 272 896
2018-07-21 04:56:53 GMT 53.458969 -1.181423 6,450 348 270 1152
2018-07-21 04:56:49 GMT 53.453110 -1.179147 6,325 347 267 1792
2018-07-21 04:56:46 GMT 53.450729 -1.178127 6,225 347 264 2176
2018-07-21 04:56:43 GMT 53.446438 -1.176426 6,125 346 264 2112
2018-07-21 04:56:38 GMT 53.440750 -1.173811 5,975 345 262 1728
2018-07-21 04:56:35 GMT 53.438572 -1.172791 5,850 343 258 1856
2018-07-21 04:56:32 GMT 53.433884 -1.170436 5,750 340 254 2048
2018-07-21 04:56:28 GMT 53.429443 -1.167533 5,650 336 252 1984
2018-07-21 04:56:25 GMT 53.427383 -1.165806 5,525 329 247 2304
2018-07-21 04:56:21 GMT 53.423401 -1.161804 5,450 326 244 2432
2018-07-21 04:56:18 GMT 53.419483 -1.156877 5,250 320 241 2688
2018-07-21 04:56:14 GMT 53.416718 -1.152544 5,100 314 239 2688
2018-07-21 04:56:08 GMT 53.412918 -1.144775 4,775 303 236 2432
2018-07-21 04:56:05 GMT 53.410873 -1.139185 4,725 300 234 2304
2018-07-21 04:56:02 GMT 53.409847 -1.135712 4,625 297 232 2368
2018-07-21 04:55:59 GMT 53.408478 -1.130729 4,500 290 228 2560
2018-07-21 04:55:56 GMT 53.407612 -1.125776 4,300 283 225 2944
2018-07-21 04:55:53 GMT 53.406647 -1.119271 4,175 278 224 3200
2018-07-21 04:55:49 GMT 53.406261 -1.111396 3,900 269 223 2944
2018-07-21 04:55:45 GMT 53.406403 -1.105176 3,500 264 221 2624
2018-07-21 04:55:41 GMT 53.406921 -1.100045 3,650 262 221 2368
2018-07-21 04:55:38 GMT 53.407471 -1.094709 3,550 259 217 1344
2018-07-21 04:55:35 GMT 53.408127 -1.090555 3,500 256 213 768
2018-07-21 04:55:32 GMT 53.409012 -1.084900 3,450 253 206 832
2018-07-21 04:55:29 GMT 53.409851 -1.080427 3,375 250 199 1408
2018-07-21 04:55:26 GMT 53.410904 -1.076346 3,325 250 196 1536
2018-07-21 04:55:21 GMT 53.412457 -1.069309 3,200 250 192 1664
2018-07-21 04:55:18 GMT 53.413620 -1.064301 3,075 249 187 1792
2018-07-21 04:55:15 GMT 53.414131 -1.061716 3,025 249 186 1728
2018-07-21 04:55:12 GMT 53.415161 -1.057120 2,925 249 182 1600
2018-07-21 04:55:09 GMT 53.416214 -1.052961 2,850 250 178 1728
2018-07-21 04:55:05 GMT 53.417221 -1.048331 2,700 250 174 1728
2018-07-21 04:55:02 GMT 53.418274 -1.043540 2,625 249 171 1792
2018-07-21 04:54:57 GMT 53.419624 -1.038208 2,500 248 168 1856
2018-07-21 04:54:54 GMT 53.420837 -1.033264 2,375 246 164 2048
2018-07-21 04:54:51 GMT 53.421345 -1.031745 2,150 243 162 2240
2018-07-21 04:54:48 GMT 53.422394 -1.028242 2,200 241 161 2688
2018-07-21 04:54:45 GMT 53.423767 -1.024475 2,025 235 162 2944
2018-07-21 04:54:41 GMT 53.425644 -1.020394 1,750 228 164 2816
2018-07-21 04:54:38 GMT 53.427212 -1.017770 1,700 219 167 2560
2018-07-21 04:54:35 GMT 53.429581 -1.014901 1,525 211 167 2304
2018-07-21 04:54:30 GMT 53.432007 -1.012469 1,400 207 168 1920
2018-07-21 04:54:27 GMT 53.435265 -1.010257 1,250 199 165 2176
2018-07-21 04:54:23 GMT 53.437687 -1.009046 1,125 196 164 2176
2018-07-21 04:54:20 GMT 53.439362 -1.008400 1,050 193 164 2176
2018-07-21 04:54:13 GMT 53.445553 -1.006138 725 192 161 2304
2018-07-21 04:54:10 GMT 53.446766 -1.005653 650 193 160 2304
2018-07-21 04:54:02 GMT 53.452583 -1.003553 350 194 158 2112
2018-07-21 04:53:48 GMT 53.461876 -0.999069 125 197 154 1472
2018-07-21 04:53:44 GMT 53.464279 -0.997872 0 196 130
2018-07-21 04:53:34 GMT 53.469437 -0.995111 0 196 88
2018-07-21 04:53:23 GMT 53.472343 -0.993738 0 196 38
2018-07-21 04:53:03 GMT 53.473034 -0.993399 0 1
2018-07-21 04:52:53 GMT 53.473206 -0.993399 0 5
2018-07-21 04:52:43 GMT 53.473549 -0.993399 0 7
2018-07-21 04:52:33 GMT 53.473721 -0.993753 0 9
2018-07-21 04:52:23 GMT 53.473892 -0.994606 0 12
2018-07-21 04:52:13 GMT 53.473892 -0.995454 0 12
2018-07-21 04:52:03 GMT 53.473721 -0.996323 0 12
2018-07-21 04:51:52 GMT 53.473206 -0.996828 0 11
2018-07-21 04:51:42 GMT 53.472870 -0.997171 0 12
2018-07-21 04:51:33 GMT 53.472179 -0.997514 0 13
2018-07-21 04:51:22 GMT 53.471832 -0.997872 0 12
2018-07-21 04:51:12 GMT 53.471317 -0.998206 0 11
2018-07-21 04:51:02 GMT 53.470802 -0.998559 0 10
2018-07-21 04:50:51 GMT 53.470802 -0.999403 0 11
2018-07-21 04:50:42 GMT 53.470974 -1.000266 0 12
2018-07-21 04:50:31 GMT 53.471317 -1.001129 0 12

Making use of Plane Finder data

You are free to use the raw flight data, aircraft information and images provided in this report for your own purposes provided the data is correctly attributed to Plane Finder. We ask that you please credit Plane Finder and link to planefinder.net in close proximity to the content.

Optionally one of the following logos (no smaller then 150x24px) can be used and must link to planefinder.net

Embedding the Plane Finder map

You are welcome to embed the Plane Finder playback map on your website to offer visitors a more interactive experience. We suggest using the following HTML code:

<iframe src="//planefinder.net/data/report/BRO37P-G-TGPG-7700-squawk-2018-07-21/map" width="800" height="600" seamless="seamless"></iframe>

Where our data comes from

Plane Finder has a global network of data feeds and antenna radars that receive data broadcast directly from aircraft. The primary technologies used are ADS-B and MLAT. We also show feeds from the FAA and a FLARM glider feed.

Click here to find out more about the Plane Finder network.

How we collect our data